﻿<?xml version="1.0" encoding="utf-8"?><gpx creator="Garmin Desktop App" version="1.1" xsi:schemaLocation="http://www.topografix.com/GPX/1/1 http://www.topografix.com/GPX/1/1/gpx.xsd http://www.garmin.com/xmlschemas/WaypointExtension/v1 http://www8.garmin.com/xmlschemas/WaypointExtensionv1.xsd http://www.garmin.com/xmlschemas/TrackPointExtension/v1 http://www.garmin.com/xmlschemas/TrackPointExtensionv1.xsd http://www.garmin.com/xmlschemas/GpxExtensions/v3 http://www8.garmin.com/xmlschemas/GpxExtensionsv3.xsd http://www.garmin.com/xmlschemas/ActivityExtension/v1 http://www8.garmin.com/xmlschemas/ActivityExtensionv1.xsd http://www.garmin.com/xmlschemas/AdventuresExtensions/v1 http://www8.garmin.com/xmlschemas/AdventuresExtensionv1.xsd http://www.garmin.com/xmlschemas/PressureExtension/v1 http://www.garmin.com/xmlschemas/PressureExtensionv1.xsd http://www.garmin.com/xmlschemas/TripExtensions/v1 http://www.garmin.com/xmlschemas/TripExtensionsv1.xsd http://www.garmin.com/xmlschemas/TripMetaDataExtensions/v1 http://www.garmin.com/xmlschemas/TripMetaDataExtensionsv1.xsd http://www.garmin.com/xmlschemas/ViaPointTransportationModeExtensions/v1 http://www.garmin.com/xmlschemas/ViaPointTransportationModeExtensionsv1.xsd http://www.garmin.com/xmlschemas/CreationTimeExtension/v1 http://www.garmin.com/xmlschemas/CreationTimeExtensionsv1.xsd http://www.garmin.com/xmlschemas/AccelerationExtension/v1 http://www.garmin.com/xmlschemas/AccelerationExtensionv1.xsd http://www.garmin.com/xmlschemas/PowerExtension/v1 http://www.garmin.com/xmlschemas/PowerExtensionv1.xsd http://www.garmin.com/xmlschemas/VideoExtension/v1 http://www.garmin.com/xmlschemas/VideoExtensionv1.xsd" xmlns="http://www.topografix.com/GPX/1/1" xmlns:xsi="http://www.w3.org/2001/XMLSchema-instance" xmlns:wptx1="http://www.garmin.com/xmlschemas/WaypointExtension/v1" xmlns:gpxtrx="http://www.garmin.com/xmlschemas/GpxExtensions/v3" xmlns:gpxtpx="http://www.garmin.com/xmlschemas/TrackPointExtension/v1" xmlns:gpxx="http://www.garmin.com/xmlschemas/GpxExtensions/v3" xmlns:trp="http://www.garmin.com/xmlschemas/TripExtensions/v1" xmlns:adv="http://www.garmin.com/xmlschemas/AdventuresExtensions/v1" xmlns:prs="http://www.garmin.com/xmlschemas/PressureExtension/v1" xmlns:tmd="http://www.garmin.com/xmlschemas/TripMetaDataExtensions/v1" xmlns:vptm="http://www.garmin.com/xmlschemas/ViaPointTransportationModeExtensions/v1" xmlns:ctx="http://www.garmin.com/xmlschemas/CreationTimeExtension/v1" xmlns:gpxacc="http://www.garmin.com/xmlschemas/AccelerationExtension/v1" xmlns:gpxpx="http://www.garmin.com/xmlschemas/PowerExtension/v1" xmlns:vidx1="http://www.garmin.com/xmlschemas/VideoExtension/v1">

  <metadata>
    <link href="http://www.garmin.com">
      <text>Garmin International</text>
    </link>
    <time>2026-04-16T07:35:42Z</time>
    <bounds maxlat="52.276029987260699" maxlon="8.31804002635181" minlat="52.13786001317203" minlon="8.038559965789318" />
  </metadata>

  <trk>
    <name>20260415Wellingholzhausen</name>
    <extensions>
      <gpxx:TrackExtension>
        <gpxx:DisplayColor>Red</gpxx:DisplayColor>
      </gpxx:TrackExtension>
    </extensions>
    <trkseg>
      <trkpt lat="52.276029987260699" lon="8.038559965789318">
        <ele>69</ele>
        <time>2026-04-15T20:26:15Z</time>
      </trkpt>
      <trkpt lat="52.275869976729155" lon="8.038730034604669">
        <ele>69</ele>
        <time>2026-04-15T20:26:20Z</time>
      </trkpt>
      <trkpt lat="52.275720024481416" lon="8.038909994065762">
        <ele>69</ele>
        <time>2026-04-15T20:26:25Z</time>
      </trkpt>
      <trkpt lat="52.275460017845035" lon="8.039170000702143">
        <ele>69</ele>
        <time>2026-04-15T20:26:33Z</time>
      </trkpt>
      <trkpt lat="52.275270000100136" lon="8.039300004020333">
        <ele>69</ele>
        <time>2026-04-15T20:26:38Z</time>
      </trkpt>
      <trkpt lat="52.274389984086156" lon="8.039739970117807">
        <ele>69</ele>
        <time>2026-04-15T20:27:03Z</time>
      </trkpt>
      <trkpt lat="52.273939959704876" lon="8.03995999507606">
        <ele>70</ele>
        <time>2026-04-15T20:27:15Z</time>
      </trkpt>
      <trkpt lat="52.273070001974702" lon="8.04025998339057">
        <ele>70</ele>
        <time>2026-04-15T20:27:39Z</time>
      </trkpt>
      <trkpt lat="52.272760039195418" lon="8.040250008925796">
        <ele>71</ele>
        <time>2026-04-15T20:27:48Z</time>
      </trkpt>
      <trkpt lat="52.272289982065558" lon="8.040399961173534">
        <ele>71</ele>
        <time>2026-04-15T20:28:00Z</time>
      </trkpt>
      <trkpt lat="52.272010026499629" lon="8.040580004453659">
        <ele>72</ele>
        <time>2026-04-15T20:28:09Z</time>
      </trkpt>
      <trkpt lat="52.271659998223186" lon="8.04068997502327">
        <ele>72</ele>
        <time>2026-04-15T20:28:18Z</time>
      </trkpt>
      <trkpt lat="52.271469980478287" lon="8.040770022198558">
        <ele>72</ele>
        <time>2026-04-15T20:28:23Z</time>
      </trkpt>
      <trkpt lat="52.271060021594167" lon="8.041000021621585">
        <ele>72</ele>
        <time>2026-04-15T20:28:35Z</time>
      </trkpt>
      <trkpt lat="52.270689960569143" lon="8.041300009936094">
        <ele>69</ele>
        <time>2026-04-15T20:28:46Z</time>
      </trkpt>
      <trkpt lat="52.269989987835288" lon="8.041860004886985">
        <ele>68</ele>
        <time>2026-04-15T20:29:07Z</time>
      </trkpt>
      <trkpt lat="52.269869958981872" lon="8.041909961029887">
        <ele>68</ele>
        <time>2026-04-15T20:29:12Z</time>
      </trkpt>
      <trkpt lat="52.26952001452446" lon="8.04129003547132">
        <ele>68</ele>
        <time>2026-04-15T20:29:26Z</time>
      </trkpt>
      <trkpt lat="52.269079964607954" lon="8.040450001135469">
        <ele>68</ele>
        <time>2026-04-15T20:29:44Z</time>
      </trkpt>
      <trkpt lat="52.268869997933507" lon="8.040059991180897">
        <ele>68</ele>
        <time>2026-04-15T20:29:53Z</time>
      </trkpt>
      <trkpt lat="52.267589997500181" lon="8.041599998250604">
        <ele>67</ele>
        <time>2026-04-15T20:30:39Z</time>
      </trkpt>
      <trkpt lat="52.267280034720898" lon="8.042039964348078">
        <ele>67</ele>
        <time>2026-04-15T20:30:50Z</time>
      </trkpt>
      <trkpt lat="52.26634000428021" lon="8.043400011956692">
        <ele>67</ele>
        <time>2026-04-15T20:31:23Z</time>
      </trkpt>
      <trkpt lat="52.265429981052876" lon="8.044680012390018">
        <ele>68</ele>
        <time>2026-04-15T20:31:55Z</time>
      </trkpt>
      <trkpt lat="52.264700001105666" lon="8.045720038935542">
        <ele>69</ele>
        <time>2026-04-15T20:32:21Z</time>
      </trkpt>
      <trkpt lat="52.264460027217865" lon="8.045230032876134">
        <ele>69</ele>
        <time>2026-04-15T20:32:31Z</time>
      </trkpt>
      <trkpt lat="52.263989970088005" lon="8.044259995222092">
        <ele>68</ele>
        <time>2026-04-15T20:32:52Z</time>
      </trkpt>
      <trkpt lat="52.263840017840266" lon="8.044250020757318">
        <ele>68</ele>
        <time>2026-04-15T20:32:57Z</time>
      </trkpt>
      <trkpt lat="52.263640025630593" lon="8.044369965791702">
        <ele>68</ele>
        <time>2026-04-15T20:33:02Z</time>
      </trkpt>
      <trkpt lat="52.263359986245632" lon="8.044529976323247">
        <ele>68</ele>
        <time>2026-04-15T20:33:10Z</time>
      </trkpt>
      <trkpt lat="52.263039965182543" lon="8.044710019603372">
        <ele>70</ele>
        <time>2026-04-15T20:33:19Z</time>
      </trkpt>
      <trkpt lat="52.262809965759516" lon="8.044810015708208">
        <ele>70</ele>
        <time>2026-04-15T20:33:26Z</time>
      </trkpt>
      <trkpt lat="52.262630006298423" lon="8.044859971851111">
        <ele>70</ele>
        <time>2026-04-15T20:33:31Z</time>
      </trkpt>
      <trkpt lat="52.262439988553524" lon="8.044919986277819">
        <ele>70</ele>
        <time>2026-04-15T20:33:36Z</time>
      </trkpt>
      <trkpt lat="52.262219963595271" lon="8.044989975169301">
        <ele>72</ele>
        <time>2026-04-15T20:33:42Z</time>
      </trkpt>
      <trkpt lat="52.262079985812306" lon="8.045130036771298">
        <ele>72</ele>
        <time>2026-04-15T20:33:48Z</time>
      </trkpt>
      <trkpt lat="52.26197998970747" lon="8.045779969543219">
        <ele>72</ele>
        <time>2026-04-15T20:33:58Z</time>
      </trkpt>
      <trkpt lat="52.261830037459731" lon="8.04649000056088">
        <ele>75</ele>
        <time>2026-04-15T20:34:11Z</time>
      </trkpt>
      <trkpt lat="52.261759964749217" lon="8.046780014410615">
        <ele>75</ele>
        <time>2026-04-15T20:34:16Z</time>
      </trkpt>
      <trkpt lat="52.261649994179606" lon="8.047080002725124">
        <ele>75</ele>
        <time>2026-04-15T20:34:21Z</time>
      </trkpt>
      <trkpt lat="52.26152996532619" lon="8.047310002148151">
        <ele>75</ele>
        <time>2026-04-15T20:34:27Z</time>
      </trkpt>
      <trkpt lat="52.261359980329871" lon="8.047700012102723">
        <ele>75</ele>
        <time>2026-04-15T20:34:34Z</time>
      </trkpt>
      <trkpt lat="52.261189995333552" lon="8.04822999984026">
        <ele>75</ele>
        <time>2026-04-15T20:34:44Z</time>
      </trkpt>
      <trkpt lat="52.260980028659105" lon="8.049170030280948">
        <ele>75</ele>
        <time>2026-04-15T20:35:01Z</time>
      </trkpt>
      <trkpt lat="52.260820018127561" lon="8.049860028550029">
        <ele>79</ele>
        <time>2026-04-15T20:35:13Z</time>
      </trkpt>
      <trkpt lat="52.260460015386343" lon="8.051210017874837">
        <ele>81</ele>
        <time>2026-04-15T20:35:38Z</time>
      </trkpt>
      <trkpt lat="52.26026002317667" lon="8.052060026675463">
        <ele>81</ele>
        <time>2026-04-15T20:35:53Z</time>
      </trkpt>
      <trkpt lat="52.2601099871099" lon="8.052999973297119">
        <ele>79</ele>
        <time>2026-04-15T20:36:10Z</time>
      </trkpt>
      <trkpt lat="52.259870013222098" lon="8.054049974307418">
        <ele>76</ele>
        <time>2026-04-15T20:36:28Z</time>
      </trkpt>
      <trkpt lat="52.259749984368682" lon="8.054639976471663">
        <ele>76</ele>
        <time>2026-04-15T20:36:38Z</time>
      </trkpt>
      <trkpt lat="52.259410014376044" lon="8.05486997589469">
        <ele>76</ele>
        <time>2026-04-15T20:36:49Z</time>
      </trkpt>
      <trkpt lat="52.258290024474263" lon="8.055289993062615">
        <ele>78</ele>
        <time>2026-04-15T20:37:19Z</time>
      </trkpt>
      <trkpt lat="52.257249997928739" lon="8.055680003017187">
        <ele>78</ele>
        <time>2026-04-15T20:37:48Z</time>
      </trkpt>
      <trkpt lat="52.257310012355447" lon="8.056209990754724">
        <ele>78</ele>
        <time>2026-04-15T20:37:57Z</time>
      </trkpt>
      <trkpt lat="52.257349994033575" lon="8.056590026244521">
        <ele>78</ele>
        <time>2026-04-15T20:38:03Z</time>
      </trkpt>
      <trkpt lat="52.257410008460283" lon="8.057150021195412">
        <ele>78</ele>
        <time>2026-04-15T20:38:12Z</time>
      </trkpt>
      <trkpt lat="52.257470022886992" lon="8.057459983974695">
        <ele>76</ele>
        <time>2026-04-15T20:38:18Z</time>
      </trkpt>
      <trkpt lat="52.25761997513473" lon="8.057689983397722">
        <ele>76</ele>
        <time>2026-04-15T20:38:24Z</time>
      </trkpt>
      <trkpt lat="52.257740003988147" lon="8.05820002220571">
        <ele>76</ele>
        <time>2026-04-15T20:38:33Z</time>
      </trkpt>
      <trkpt lat="52.257860032841563" lon="8.058730009943247">
        <ele>76</ele>
        <time>2026-04-15T20:38:42Z</time>
      </trkpt>
      <trkpt lat="52.257909988984466" lon="8.059020023792982">
        <ele>76</ele>
        <time>2026-04-15T20:38:47Z</time>
      </trkpt>
      <trkpt lat="52.257949970662594" lon="8.059440040960908">
        <ele>76</ele>
        <time>2026-04-15T20:38:54Z</time>
      </trkpt>
      <trkpt lat="52.257970003411174" lon="8.060040017589927">
        <ele>76</ele>
        <time>2026-04-15T20:39:04Z</time>
      </trkpt>
      <trkpt lat="52.257930021733046" lon="8.060360038653016">
        <ele>76</ele>
        <time>2026-04-15T20:39:09Z</time>
      </trkpt>
      <trkpt lat="52.257849974557757" lon="8.060769997537136">
        <ele>76</ele>
        <time>2026-04-15T20:39:16Z</time>
      </trkpt>
      <trkpt lat="52.257789960131049" lon="8.061130000278354">
        <ele>76</ele>
        <time>2026-04-15T20:39:22Z</time>
      </trkpt>
      <trkpt lat="52.25766004063189" lon="8.061940027400851">
        <ele>76</ele>
        <time>2026-04-15T20:39:36Z</time>
      </trkpt>
      <trkpt lat="52.25748997181654" lon="8.062909981235862">
        <ele>76</ele>
        <time>2026-04-15T20:39:53Z</time>
      </trkpt>
      <trkpt lat="52.257349994033575" lon="8.063699975609779">
        <ele>76</ele>
        <time>2026-04-15T20:40:06Z</time>
      </trkpt>
      <trkpt lat="52.257249997928739" lon="8.064319984987378">
        <ele>76</ele>
        <time>2026-04-15T20:40:16Z</time>
      </trkpt>
      <trkpt lat="52.25718998350203" lon="8.064679987728596">
        <ele>76</ele>
        <time>2026-04-15T20:40:22Z</time>
      </trkpt>
      <trkpt lat="52.25708001293242" lon="8.065320029854775">
        <ele>76</ele>
        <time>2026-04-15T20:40:33Z</time>
      </trkpt>
      <trkpt lat="52.257019998505712" lon="8.065680032595992">
        <ele>79</ele>
        <time>2026-04-15T20:40:40Z</time>
      </trkpt>
      <trkpt lat="52.256950009614229" lon="8.066089991480112">
        <ele>79</ele>
        <time>2026-04-15T20:40:46Z</time>
      </trkpt>
      <trkpt lat="52.256899969652295" lon="8.06642996147275">
        <ele>79</ele>
        <time>2026-04-15T20:40:52Z</time>
      </trkpt>
      <trkpt lat="52.25678002461791" lon="8.067160025238991">
        <ele>79</ele>
        <time>2026-04-15T20:41:05Z</time>
      </trkpt>
      <trkpt lat="52.256680028513074" lon="8.06776000186801">
        <ele>79</ele>
        <time>2026-04-15T20:41:15Z</time>
      </trkpt>
      <trkpt lat="52.256520017981529" lon="8.068779995664954">
        <ele>79</ele>
        <time>2026-04-15T20:41:32Z</time>
      </trkpt>
      <trkpt lat="52.256320025771856" lon="8.069990007206798">
        <ele>79</ele>
        <time>2026-04-15T20:41:52Z</time>
      </trkpt>
      <trkpt lat="52.256190022453666" lon="8.070729961618781">
        <ele>79</ele>
        <time>2026-04-15T20:42:05Z</time>
      </trkpt>
      <trkpt lat="52.256109975278378" lon="8.071089964359999">
        <ele>79</ele>
        <time>2026-04-15T20:42:11Z</time>
      </trkpt>
      <trkpt lat="52.255709990859032" lon="8.07190996594727">
        <ele>79</ele>
        <time>2026-04-15T20:42:28Z</time>
      </trkpt>
      <trkpt lat="52.255560038611293" lon="8.07222998701036">
        <ele>85</ele>
        <time>2026-04-15T20:42:35Z</time>
      </trkpt>
      <trkpt lat="52.255059974268079" lon="8.073309995234013">
        <ele>85</ele>
        <time>2026-04-15T20:42:57Z</time>
      </trkpt>
      <trkpt lat="52.254940029233694" lon="8.073609983548522">
        <ele>88</ele>
        <time>2026-04-15T20:43:03Z</time>
      </trkpt>
      <trkpt lat="52.254520012065768" lon="8.074580021202564">
        <ele>88</ele>
        <time>2026-04-15T20:43:22Z</time>
      </trkpt>
      <trkpt lat="52.254220023751259" lon="8.075300026685">
        <ele>90</ele>
        <time>2026-04-15T20:43:37Z</time>
      </trkpt>
      <trkpt lat="52.254090020433068" lon="8.075609989464283">
        <ele>90</ele>
        <time>2026-04-15T20:43:43Z</time>
      </trkpt>
      <trkpt lat="52.253939984366298" lon="8.075960017740727">
        <ele>90</ele>
        <time>2026-04-15T20:43:50Z</time>
      </trkpt>
      <trkpt lat="52.253649970516562" lon="8.076510038226843">
        <ele>100</ele>
        <time>2026-04-15T20:44:02Z</time>
      </trkpt>
      <trkpt lat="52.253389963880181" lon="8.076940029859543">
        <ele>100</ele>
        <time>2026-04-15T20:44:12Z</time>
      </trkpt>
      <trkpt lat="52.253259960561991" lon="8.077180003747344">
        <ele>100</ele>
        <time>2026-04-15T20:44:17Z</time>
      </trkpt>
      <trkpt lat="52.253110008314252" lon="8.077609995380044">
        <ele>105</ele>
        <time>2026-04-15T20:44:25Z</time>
      </trkpt>
      <trkpt lat="52.253000037744641" lon="8.078090026974678">
        <ele>105</ele>
        <time>2026-04-15T20:44:33Z</time>
      </trkpt>
      <trkpt lat="52.252819994464517" lon="8.078810032457113">
        <ele>105</ele>
        <time>2026-04-15T20:44:46Z</time>
      </trkpt>
      <trkpt lat="52.252729972824454" lon="8.079199958592653">
        <ele>105</ele>
        <time>2026-04-15T20:44:53Z</time>
      </trkpt>
      <trkpt lat="52.25256996229291" lon="8.079919964075089">
        <ele>105</ele>
        <time>2026-04-15T20:45:05Z</time>
      </trkpt>
      <trkpt lat="52.252380028367043" lon="8.080680035054684">
        <ele>105</ele>
        <time>2026-04-15T20:45:19Z</time>
      </trkpt>
      <trkpt lat="52.252220017835498" lon="8.081410015001893">
        <ele>99</ele>
        <time>2026-04-15T20:45:32Z</time>
      </trkpt>
      <trkpt lat="52.252069981768727" lon="8.082060031592846">
        <ele>99</ele>
        <time>2026-04-15T20:45:43Z</time>
      </trkpt>
      <trkpt lat="52.251969985663891" lon="8.082430008798838">
        <ele>88</ele>
        <time>2026-04-15T20:45:50Z</time>
      </trkpt>
      <trkpt lat="52.251850040629506" lon="8.082899982109666">
        <ele>88</ele>
        <time>2026-04-15T20:45:58Z</time>
      </trkpt>
      <trkpt lat="52.251690030097961" lon="8.083289992064238">
        <ele>88</ele>
        <time>2026-04-15T20:46:06Z</time>
      </trkpt>
      <trkpt lat="52.251549968495965" lon="8.083580005913973">
        <ele>88</ele>
        <time>2026-04-15T20:46:12Z</time>
      </trkpt>
      <trkpt lat="52.251360034570098" lon="8.083970015868545">
        <ele>83</ele>
        <time>2026-04-15T20:46:20Z</time>
      </trkpt>
      <trkpt lat="52.251140009611845" lon="8.084409981966019">
        <ele>83</ele>
        <time>2026-04-15T20:46:29Z</time>
      </trkpt>
      <trkpt lat="52.25100003182888" lon="8.084739977493882">
        <ele>83</ele>
        <time>2026-04-15T20:46:36Z</time>
      </trkpt>
      <trkpt lat="52.25087002851069" lon="8.085180027410388">
        <ele>83</ele>
        <time>2026-04-15T20:46:44Z</time>
      </trkpt>
      <trkpt lat="52.250659978017211" lon="8.086160039529204">
        <ele>84</ele>
        <time>2026-04-15T20:47:01Z</time>
      </trkpt>
      <trkpt lat="52.2505500074476" lon="8.086709976196289">
        <ele>84</ele>
        <time>2026-04-15T20:47:10Z</time>
      </trkpt>
      <trkpt lat="52.25044003687799" lon="8.087229989469051">
        <ele>82</ele>
        <time>2026-04-15T20:47:19Z</time>
      </trkpt>
      <trkpt lat="52.250380022451282" lon="8.087529977783561">
        <ele>82</ele>
        <time>2026-04-15T20:47:24Z</time>
      </trkpt>
      <trkpt lat="52.25009998306632" lon="8.088879967108369">
        <ele>80</ele>
        <time>2026-04-15T20:47:48Z</time>
      </trkpt>
      <trkpt lat="52.249879958108068" lon="8.089950000867248">
        <ele>80</ele>
        <time>2026-04-15T20:48:06Z</time>
      </trkpt>
      <trkpt lat="52.249799994751811" lon="8.090419974178076">
        <ele>81</ele>
        <time>2026-04-15T20:48:14Z</time>
      </trkpt>
      <trkpt lat="52.249530013650656" lon="8.091959981247783">
        <ele>78</ele>
        <time>2026-04-15T20:48:40Z</time>
      </trkpt>
      <trkpt lat="52.249479973688722" lon="8.092249995097518">
        <ele>78</ele>
        <time>2026-04-15T20:48:45Z</time>
      </trkpt>
      <trkpt lat="52.249469999223948" lon="8.092700019478798">
        <ele>78</ele>
        <time>2026-04-15T20:48:53Z</time>
      </trkpt>
      <trkpt lat="52.249490031972528" lon="8.093000007793307">
        <ele>78</ele>
        <time>2026-04-15T20:48:58Z</time>
      </trkpt>
      <trkpt lat="52.249549962580204" lon="8.093550028279424">
        <ele>78</ele>
        <time>2026-04-15T20:49:07Z</time>
      </trkpt>
      <trkpt lat="52.249569995328784" lon="8.093920005485416">
        <ele>79</ele>
        <time>2026-04-15T20:49:13Z</time>
      </trkpt>
      <trkpt lat="52.249439992010593" lon="8.094900017604232">
        <ele>79</ele>
        <time>2026-04-15T20:49:29Z</time>
      </trkpt>
      <trkpt lat="52.249300014227629" lon="8.095869971439242">
        <ele>82</ele>
        <time>2026-04-15T20:49:46Z</time>
      </trkpt>
      <trkpt lat="52.249049982056022" lon="8.096770020201802">
        <ele>82</ele>
        <time>2026-04-15T20:50:02Z</time>
      </trkpt>
      <trkpt lat="52.248849989846349" lon="8.097820021212101">
        <ele>83</ele>
        <time>2026-04-15T20:50:20Z</time>
      </trkpt>
      <trkpt lat="52.248369958251715" lon="8.097939966246486">
        <ele>83</ele>
        <time>2026-04-15T20:50:34Z</time>
      </trkpt>
      <trkpt lat="52.247320041060448" lon="8.097860002890229">
        <ele>84</ele>
        <time>2026-04-15T20:51:02Z</time>
      </trkpt>
      <trkpt lat="52.246840009465814" lon="8.097809962928295">
        <ele>84</ele>
        <time>2026-04-15T20:51:15Z</time>
      </trkpt>
      <trkpt lat="52.246340028941631" lon="8.097739974036813">
        <ele>88</ele>
        <time>2026-04-15T20:51:28Z</time>
      </trkpt>
      <trkpt lat="52.245739968493581" lon="8.097660010680556">
        <ele>88</ele>
        <time>2026-04-15T20:51:44Z</time>
      </trkpt>
      <trkpt lat="52.245490020141006" lon="8.097599996253848">
        <ele>88</ele>
        <time>2026-04-15T20:51:51Z</time>
      </trkpt>
      <trkpt lat="52.245239987969398" lon="8.097599996253848">
        <ele>91</ele>
        <time>2026-04-15T20:51:58Z</time>
      </trkpt>
      <trkpt lat="52.244909992441535" lon="8.097939966246486">
        <ele>91</ele>
        <time>2026-04-15T20:52:08Z</time>
      </trkpt>
      <trkpt lat="52.244760040193796" lon="8.098110035061836">
        <ele>91</ele>
        <time>2026-04-15T20:52:13Z</time>
      </trkpt>
      <trkpt lat="52.244579996913671" lon="8.098320001736283">
        <ele>91</ele>
        <time>2026-04-15T20:52:19Z</time>
      </trkpt>
      <trkpt lat="52.244359971955419" lon="8.098580008372665">
        <ele>92</ele>
        <time>2026-04-15T20:52:26Z</time>
      </trkpt>
      <trkpt lat="52.243839958682656" lon="8.099219966679812">
        <ele>92</ele>
        <time>2026-04-15T20:52:43Z</time>
      </trkpt>
      <trkpt lat="52.243639966472983" lon="8.099449966102839">
        <ele>95</ele>
        <time>2026-04-15T20:52:50Z</time>
      </trkpt>
      <trkpt lat="52.242760034278035" lon="8.100499967113137">
        <ele>101</ele>
        <time>2026-04-15T20:53:19Z</time>
      </trkpt>
      <trkpt lat="52.242440013214946" lon="8.100859969854355">
        <ele>101</ele>
        <time>2026-04-15T20:53:30Z</time>
      </trkpt>
      <trkpt lat="52.2420400287956" lon="8.101249979808927">
        <ele>101</ele>
        <time>2026-04-15T20:53:42Z</time>
      </trkpt>
      <trkpt lat="52.241859985515475" lon="8.101479979231954">
        <ele>98</ele>
        <time>2026-04-15T20:53:48Z</time>
      </trkpt>
      <trkpt lat="52.241690000519156" lon="8.101769993081689">
        <ele>98</ele>
        <time>2026-04-15T20:53:55Z</time>
      </trkpt>
      <trkpt lat="52.241290016099811" lon="8.10243995860219">
        <ele>98</ele>
        <time>2026-04-15T20:54:10Z</time>
      </trkpt>
      <trkpt lat="52.241060016676784" lon="8.102680016309023">
        <ele>92</ele>
        <time>2026-04-15T20:54:17Z</time>
      </trkpt>
      <trkpt lat="52.240349985659122" lon="8.10331997461617">
        <ele>92</ele>
        <time>2026-04-15T20:54:39Z</time>
      </trkpt>
      <trkpt lat="52.240029964596033" lon="8.103760024532676">
        <ele>89</ele>
        <time>2026-04-15T20:54:50Z</time>
      </trkpt>
      <trkpt lat="52.239899961277843" lon="8.103999998420477">
        <ele>89</ele>
        <time>2026-04-15T20:54:55Z</time>
      </trkpt>
      <trkpt lat="52.239770041778684" lon="8.104360001161695">
        <ele>89</ele>
        <time>2026-04-15T20:55:02Z</time>
      </trkpt>
      <trkpt lat="52.239580024033785" lon="8.105279998853803">
        <ele>91</ele>
        <time>2026-04-15T20:55:18Z</time>
      </trkpt>
      <trkpt lat="52.239469969645143" lon="8.105800012126565">
        <ele>91</ele>
        <time>2026-04-15T20:55:27Z</time>
      </trkpt>
      <trkpt lat="52.23939998075366" lon="8.106290018185973">
        <ele>91</ele>
        <time>2026-04-15T20:55:35Z</time>
      </trkpt>
      <trkpt lat="52.239390006288886" lon="8.106739958748221">
        <ele>92</ele>
        <time>2026-04-15T20:55:43Z</time>
      </trkpt>
      <trkpt lat="52.23942001350224" lon="8.107029972597957">
        <ele>92</ele>
        <time>2026-04-15T20:55:48Z</time>
      </trkpt>
      <trkpt lat="52.239459995180368" lon="8.1073800008744">
        <ele>92</ele>
        <time>2026-04-15T20:55:53Z</time>
      </trkpt>
      <trkpt lat="52.239490002393723" lon="8.107839999720454">
        <ele>92</ele>
        <time>2026-04-15T20:56:01Z</time>
      </trkpt>
      <trkpt lat="52.239350024610758" lon="8.110139993950725">
        <ele>93</ele>
        <time>2026-04-15T20:56:39Z</time>
      </trkpt>
      <trkpt lat="52.239069985225797" lon="8.110539978370071">
        <ele>93</ele>
        <time>2026-04-15T20:56:50Z</time>
      </trkpt>
      <trkpt lat="52.23712001927197" lon="8.11083996668458">
        <ele>96</ele>
        <time>2026-04-15T20:57:42Z</time>
      </trkpt>
      <trkpt lat="52.236739983782172" lon="8.11085999943316">
        <ele>96</ele>
        <time>2026-04-15T20:57:52Z</time>
      </trkpt>
      <trkpt lat="52.236579973250628" lon="8.110720021650195">
        <ele>99</ele>
        <time>2026-04-15T20:57:57Z</time>
      </trkpt>
      <trkpt lat="52.235239958390594" lon="8.110200008377433">
        <ele>103</ele>
        <time>2026-04-15T20:58:34Z</time>
      </trkpt>
      <trkpt lat="52.235009958967566" lon="8.11000001616776">
        <ele>103</ele>
        <time>2026-04-15T20:58:41Z</time>
      </trkpt>
      <trkpt lat="52.234400007873774" lon="8.109250003471971">
        <ele>110</ele>
        <time>2026-04-15T20:59:02Z</time>
      </trkpt>
      <trkpt lat="52.234219964593649" lon="8.109080018475652">
        <ele>110</ele>
        <time>2026-04-15T20:59:07Z</time>
      </trkpt>
      <trkpt lat="52.233099974691868" lon="8.108330005779862">
        <ele>116</ele>
        <time>2026-04-15T20:59:39Z</time>
      </trkpt>
      <trkpt lat="52.232850026339293" lon="8.108169995248318">
        <ele>116</ele>
        <time>2026-04-15T20:59:47Z</time>
      </trkpt>
      <trkpt lat="52.23263000138104" lon="8.108019959181547">
        <ele>119</ele>
        <time>2026-04-15T20:59:53Z</time>
      </trkpt>
      <trkpt lat="52.232320038601756" lon="8.107779985293746">
        <ele>119</ele>
        <time>2026-04-15T21:00:02Z</time>
      </trkpt>
      <trkpt lat="52.232049973681569" lon="8.1073800008744">
        <ele>119</ele>
        <time>2026-04-15T21:00:12Z</time>
      </trkpt>
      <trkpt lat="52.231840007007122" lon="8.107110019773245">
        <ele>119</ele>
        <time>2026-04-15T21:00:19Z</time>
      </trkpt>
      <trkpt lat="52.23147002980113" lon="8.106869962066412">
        <ele>119</ele>
        <time>2026-04-15T21:00:30Z</time>
      </trkpt>
      <trkpt lat="52.231210023164749" lon="8.106789998710156">
        <ele>119</ele>
        <time>2026-04-15T21:00:37Z</time>
      </trkpt>
      <trkpt lat="52.230120040476322" lon="8.106750017032027">
        <ele>124</ele>
        <time>2026-04-15T21:01:06Z</time>
      </trkpt>
      <trkpt lat="52.228590007871389" lon="8.106409963220358">
        <ele>129</ele>
        <time>2026-04-15T21:01:47Z</time>
      </trkpt>
      <trkpt lat="52.227749973535538" lon="8.106230003759265">
        <ele>133</ele>
        <time>2026-04-15T21:02:10Z</time>
      </trkpt>
      <trkpt lat="52.227570014074445" lon="8.106230003759265">
        <ele>133</ele>
        <time>2026-04-15T21:02:15Z</time>
      </trkpt>
      <trkpt lat="52.227189978584647" lon="8.106309967115521">
        <ele>133</ele>
        <time>2026-04-15T21:02:25Z</time>
      </trkpt>
      <trkpt lat="52.226999960839748" lon="8.106239978224039">
        <ele>133</ele>
        <time>2026-04-15T21:02:30Z</time>
      </trkpt>
      <trkpt lat="52.226750012487173" lon="8.106009978801012">
        <ele>133</ele>
        <time>2026-04-15T21:02:38Z</time>
      </trkpt>
      <trkpt lat="52.226269980892539" lon="8.105379994958639">
        <ele>137</ele>
        <time>2026-04-15T21:02:54Z</time>
      </trkpt>
      <trkpt lat="52.226009974256158" lon="8.105249991640449">
        <ele>137</ele>
        <time>2026-04-15T21:03:01Z</time>
      </trkpt>
      <trkpt lat="52.225820040330291" lon="8.105200035497546">
        <ele>133</ele>
        <time>2026-04-15T21:03:07Z</time>
      </trkpt>
      <trkpt lat="52.224580021575093" lon="8.104959977790713">
        <ele>134</ele>
        <time>2026-04-15T21:03:40Z</time>
      </trkpt>
      <trkpt lat="52.223720038309693" lon="8.104859981685877">
        <ele>136</ele>
        <time>2026-04-15T21:04:03Z</time>
      </trkpt>
      <trkpt lat="52.222550008445978" lon="8.104590000584722">
        <ele>140</ele>
        <time>2026-04-15T21:04:34Z</time>
      </trkpt>
      <trkpt lat="52.221980039030313" lon="8.104429990053177">
        <ele>140</ele>
        <time>2026-04-15T21:04:50Z</time>
      </trkpt>
      <trkpt lat="52.220780001953244" lon="8.10422002337873">
        <ele>142</ele>
        <time>2026-04-15T21:05:22Z</time>
      </trkpt>
      <trkpt lat="52.220389991998672" lon="8.104160008952022">
        <ele>142</ele>
        <time>2026-04-15T21:05:33Z</time>
      </trkpt>
      <trkpt lat="52.219730000942945" lon="8.104039980098605">
        <ele>142</ele>
        <time>2026-04-15T21:05:50Z</time>
      </trkpt>
      <trkpt lat="52.21943998709321" lon="8.103930009528995">
        <ele>142</ele>
        <time>2026-04-15T21:05:58Z</time>
      </trkpt>
      <trkpt lat="52.219290034845471" lon="8.103739991784096">
        <ele>142</ele>
        <time>2026-04-15T21:06:03Z</time>
      </trkpt>
      <trkpt lat="52.218549996614456" lon="8.104940028861165">
        <ele>144</ele>
        <time>2026-04-15T21:06:31Z</time>
      </trkpt>
      <trkpt lat="52.218329971656203" lon="8.105330038815737">
        <ele>144</ele>
        <time>2026-04-15T21:06:40Z</time>
      </trkpt>
      <trkpt lat="52.217880031093955" lon="8.106060018762946">
        <ele>148</ele>
        <time>2026-04-15T21:06:57Z</time>
      </trkpt>
      <trkpt lat="52.217170000076294" lon="8.10722996480763">
        <ele>147</ele>
        <time>2026-04-15T21:07:24Z</time>
      </trkpt>
      <trkpt lat="52.216800022870302" lon="8.107849974185228">
        <ele>147</ele>
        <time>2026-04-15T21:07:38Z</time>
      </trkpt>
      <trkpt lat="52.216500034555793" lon="8.108339980244637">
        <ele>148</ele>
        <time>2026-04-15T21:07:49Z</time>
      </trkpt>
      <trkpt lat="52.216089991852641" lon="8.109029978513718">
        <ele>148</ele>
        <time>2026-04-15T21:08:05Z</time>
      </trkpt>
      <trkpt lat="52.215330004692078" lon="8.110300004482269">
        <ele>147</ele>
        <time>2026-04-15T21:08:34Z</time>
      </trkpt>
      <trkpt lat="52.21398001536727" lon="8.112490028142929">
        <ele>140</ele>
        <time>2026-04-15T21:09:25Z</time>
      </trkpt>
      <trkpt lat="52.2136399615556" lon="8.113010041415691">
        <ele>140</ele>
        <time>2026-04-15T21:09:37Z</time>
      </trkpt>
      <trkpt lat="52.212730022147298" lon="8.114500008523464">
        <ele>139</ele>
        <time>2026-04-15T21:10:12Z</time>
      </trkpt>
      <trkpt lat="52.212500022724271" lon="8.11487996019423">
        <ele>139</ele>
        <time>2026-04-15T21:10:21Z</time>
      </trkpt>
      <trkpt lat="52.21237001940608" lon="8.115090010687709">
        <ele>139</ele>
        <time>2026-04-15T21:10:26Z</time>
      </trkpt>
      <trkpt lat="52.212080005556345" lon="8.115550009533763">
        <ele>139</ele>
        <time>2026-04-15T21:10:36Z</time>
      </trkpt>
      <trkpt lat="52.209650008007884" lon="8.119580028578639">
        <ele>140</ele>
        <time>2026-04-15T21:12:09Z</time>
      </trkpt>
      <trkpt lat="52.209390001371503" lon="8.119970038533211">
        <ele>140</ele>
        <time>2026-04-15T21:12:18Z</time>
      </trkpt>
      <trkpt lat="52.209129994735122" lon="8.120419979095459">
        <ele>140</ele>
        <time>2026-04-15T21:12:28Z</time>
      </trkpt>
      <trkpt lat="52.20873998478055" lon="8.121069995686412">
        <ele>142</ele>
        <time>2026-04-15T21:12:43Z</time>
      </trkpt>
      <trkpt lat="52.208340000361204" lon="8.121710037812591">
        <ele>142</ele>
        <time>2026-04-15T21:12:58Z</time>
      </trkpt>
      <trkpt lat="52.207610020413995" lon="8.122909991070628">
        <ele>140</ele>
        <time>2026-04-15T21:13:26Z</time>
      </trkpt>
      <trkpt lat="52.20729997381568" lon="8.123439978808165">
        <ele>134</ele>
        <time>2026-04-15T21:13:38Z</time>
      </trkpt>
      <trkpt lat="52.206730004400015" lon="8.124380009248853">
        <ele>130</ele>
        <time>2026-04-15T21:14:00Z</time>
      </trkpt>
      <trkpt lat="52.20560004003346" lon="8.126210030168295">
        <ele>129</ele>
        <time>2026-04-15T21:14:42Z</time>
      </trkpt>
      <trkpt lat="52.205210030078888" lon="8.12677999958396">
        <ele>132</ele>
        <time>2026-04-15T21:14:56Z</time>
      </trkpt>
      <trkpt lat="52.204950023442507" lon="8.127119969576597">
        <ele>132</ele>
        <time>2026-04-15T21:15:05Z</time>
      </trkpt>
      <trkpt lat="52.204650035127997" lon="8.127430016174913">
        <ele>132</ele>
        <time>2026-04-15T21:15:15Z</time>
      </trkpt>
      <trkpt lat="52.204279974102974" lon="8.127669990062714">
        <ele>135</ele>
        <time>2026-04-15T21:15:25Z</time>
      </trkpt>
      <trkpt lat="52.203659964725375" lon="8.127880040556192">
        <ele>135</ele>
        <time>2026-04-15T21:15:42Z</time>
      </trkpt>
      <trkpt lat="52.20338998362422" lon="8.127960003912449">
        <ele>135</ele>
        <time>2026-04-15T21:15:50Z</time>
      </trkpt>
      <trkpt lat="52.203069962561131" lon="8.128080032765865">
        <ele>131</ele>
        <time>2026-04-15T21:15:58Z</time>
      </trkpt>
      <trkpt lat="52.202759999781847" lon="8.128229985013604">
        <ele>131</ele>
        <time>2026-04-15T21:16:07Z</time>
      </trkpt>
      <trkpt lat="52.202469985932112" lon="8.128429977223277">
        <ele>131</ele>
        <time>2026-04-15T21:16:15Z</time>
      </trkpt>
      <trkpt lat="52.202290026471019" lon="8.128599962219596">
        <ele>120</ele>
        <time>2026-04-15T21:16:21Z</time>
      </trkpt>
      <trkpt lat="52.202130015939474" lon="8.128599962219596">
        <ele>120</ele>
        <time>2026-04-15T21:16:26Z</time>
      </trkpt>
      <trkpt lat="52.202009987086058" lon="8.128800038248301">
        <ele>120</ele>
        <time>2026-04-15T21:16:31Z</time>
      </trkpt>
      <trkpt lat="52.201860034838319" lon="8.129200022667646">
        <ele>120</ele>
        <time>2026-04-15T21:16:40Z</time>
      </trkpt>
      <trkpt lat="52.201700024306774" lon="8.129549967125058">
        <ele>120</ele>
        <time>2026-04-15T21:16:47Z</time>
      </trkpt>
      <trkpt lat="52.201489973813295" lon="8.130139969289303">
        <ele>112</ele>
        <time>2026-04-15T21:16:58Z</time>
      </trkpt>
      <trkpt lat="52.201359970495105" lon="8.130670040845871">
        <ele>112</ele>
        <time>2026-04-15T21:17:07Z</time>
      </trkpt>
      <trkpt lat="52.201080014929175" lon="8.131869994103909">
        <ele>113</ele>
        <time>2026-04-15T21:17:28Z</time>
      </trkpt>
      <trkpt lat="52.20081003382802" lon="8.13298998400569">
        <ele>115</ele>
        <time>2026-04-15T21:17:48Z</time>
      </trkpt>
      <trkpt lat="52.200629990547895" lon="8.13357001170516">
        <ele>115</ele>
        <time>2026-04-15T21:17:59Z</time>
      </trkpt>
      <trkpt lat="52.200420023873448" lon="8.134099999442697">
        <ele>115</ele>
        <time>2026-04-15T21:18:09Z</time>
      </trkpt>
      <trkpt lat="52.200309969484806" lon="8.134350031614304">
        <ele>120</ele>
        <time>2026-04-15T21:18:14Z</time>
      </trkpt>
      <trkpt lat="52.200179966166615" lon="8.134580031037331">
        <ele>120</ele>
        <time>2026-04-15T21:18:19Z</time>
      </trkpt>
      <trkpt lat="52.200000006705523" lon="8.134869961068034">
        <ele>120</ele>
        <time>2026-04-15T21:18:26Z</time>
      </trkpt>
      <trkpt lat="52.19980001449585" lon="8.135150000452995">
        <ele>120</ele>
        <time>2026-04-15T21:18:33Z</time>
      </trkpt>
      <trkpt lat="52.19950002618134" lon="8.135479995980859">
        <ele>125</ele>
        <time>2026-04-15T21:18:43Z</time>
      </trkpt>
      <trkpt lat="52.199210012331605" lon="8.135730028152466">
        <ele>125</ele>
        <time>2026-04-15T21:18:51Z</time>
      </trkpt>
      <trkpt lat="52.198989987373352" lon="8.135879980400205">
        <ele>125</ele>
        <time>2026-04-15T21:18:58Z</time>
      </trkpt>
      <trkpt lat="52.198729980736971" lon="8.136019958183169">
        <ele>125</ele>
        <time>2026-04-15T21:19:05Z</time>
      </trkpt>
      <trkpt lat="52.198539962992072" lon="8.136100005358458">
        <ele>130</ele>
        <time>2026-04-15T21:19:10Z</time>
      </trkpt>
      <trkpt lat="52.198339970782399" lon="8.136160019785166">
        <ele>130</ele>
        <time>2026-04-15T21:19:16Z</time>
      </trkpt>
      <trkpt lat="52.198000000789762" lon="8.136209975928068">
        <ele>130</ele>
        <time>2026-04-15T21:19:25Z</time>
      </trkpt>
      <trkpt lat="52.197790034115314" lon="8.136209975928068">
        <ele>130</ele>
        <time>2026-04-15T21:19:31Z</time>
      </trkpt>
      <trkpt lat="52.197509994730353" lon="8.136179968714714">
        <ele>129</ele>
        <time>2026-04-15T21:19:38Z</time>
      </trkpt>
      <trkpt lat="52.197300028055906" lon="8.136130012571812">
        <ele>129</ele>
        <time>2026-04-15T21:19:44Z</time>
      </trkpt>
      <trkpt lat="52.197100035846233" lon="8.136060023680329">
        <ele>129</ele>
        <time>2026-04-15T21:19:49Z</time>
      </trkpt>
      <trkpt lat="52.196829970926046" lon="8.135919962078333">
        <ele>129</ele>
        <time>2026-04-15T21:19:57Z</time>
      </trkpt>
      <trkpt lat="52.196589997038245" lon="8.135770009830594">
        <ele>129</ele>
        <time>2026-04-15T21:20:04Z</time>
      </trkpt>
      <trkpt lat="52.196260001510382" lon="8.135530035942793">
        <ele>127</ele>
        <time>2026-04-15T21:20:13Z</time>
      </trkpt>
      <trkpt lat="52.195370011031628" lon="8.134820004925132">
        <ele>125</ele>
        <time>2026-04-15T21:20:40Z</time>
      </trkpt>
      <trkpt lat="52.195089971646667" lon="8.134650019928813">
        <ele>125</ele>
        <time>2026-04-15T21:20:48Z</time>
      </trkpt>
      <trkpt lat="52.194910012185574" lon="8.134559998288751">
        <ele>125</ele>
        <time>2026-04-15T21:20:53Z</time>
      </trkpt>
      <trkpt lat="52.194859972223639" lon="8.13485998660326">
        <ele>125</ele>
        <time>2026-04-15T21:20:58Z</time>
      </trkpt>
      <trkpt lat="52.195130037143826" lon="8.134950008243322">
        <ele>126</ele>
        <time>2026-04-15T21:21:06Z</time>
      </trkpt>
      <trkpt lat="52.195509988814592" lon="8.135189982131124">
        <ele>126</ele>
        <time>2026-04-15T21:21:17Z</time>
      </trkpt>
      <trkpt lat="52.195720039308071" lon="8.135349992662668">
        <ele>126</ele>
        <time>2026-04-15T21:21:23Z</time>
      </trkpt>
      <trkpt lat="52.195630017668009" lon="8.136179968714714">
        <ele>125</ele>
        <time>2026-04-15T21:21:38Z</time>
      </trkpt>
      <trkpt lat="52.195349978283048" lon="8.137210020795465">
        <ele>125</ele>
        <time>2026-04-15T21:21:57Z</time>
      </trkpt>
      <trkpt lat="52.195210000500083" lon="8.137749982997775">
        <ele>125</ele>
        <time>2026-04-15T21:22:06Z</time>
      </trkpt>
      <trkpt lat="52.195119978860021" lon="8.138119960203767">
        <ele>125</ele>
        <time>2026-04-15T21:22:13Z</time>
      </trkpt>
      <trkpt lat="52.194800041615963" lon="8.139150012284517">
        <ele>133</ele>
        <time>2026-04-15T21:22:32Z</time>
      </trkpt>
      <trkpt lat="52.194670038297772" lon="8.139489982277155">
        <ele>133</ele>
        <time>2026-04-15T21:22:38Z</time>
      </trkpt>
      <trkpt lat="52.19445001333952" lon="8.139749988913536">
        <ele>135</ele>
        <time>2026-04-15T21:22:45Z</time>
      </trkpt>
      <trkpt lat="52.194180032238364" lon="8.139979988336563">
        <ele>135</ele>
        <time>2026-04-15T21:22:54Z</time>
      </trkpt>
      <trkpt lat="52.193939974531531" lon="8.140239994972944">
        <ele>135</ele>
        <time>2026-04-15T21:23:01Z</time>
      </trkpt>
      <trkpt lat="52.193649960681796" lon="8.140899986028671">
        <ele>130</ele>
        <time>2026-04-15T21:23:15Z</time>
      </trkpt>
      <trkpt lat="52.193439994007349" lon="8.141440032050014">
        <ele>130</ele>
        <time>2026-04-15T21:23:25Z</time>
      </trkpt>
      <trkpt lat="52.19324997626245" lon="8.141910005360842">
        <ele>130</ele>
        <time>2026-04-15T21:23:34Z</time>
      </trkpt>
      <trkpt lat="52.192889973521233" lon="8.142560021951795">
        <ele>125</ele>
        <time>2026-04-15T21:23:49Z</time>
      </trkpt>
      <trkpt lat="52.192570036277175" lon="8.143109958618879">
        <ele>125</ele>
        <time>2026-04-15T21:24:01Z</time>
      </trkpt>
      <trkpt lat="52.192420000210404" lon="8.14328002743423">
        <ele>126</ele>
        <time>2026-04-15T21:24:06Z</time>
      </trkpt>
      <trkpt lat="52.192150019109249" lon="8.143380023539066">
        <ele>126</ele>
        <time>2026-04-15T21:24:13Z</time>
      </trkpt>
      <trkpt lat="52.19193996861577" lon="8.143450012430549">
        <ele>126</ele>
        <time>2026-04-15T21:24:19Z</time>
      </trkpt>
      <trkpt lat="52.19064999371767" lon="8.144010007381439">
        <ele>129</ele>
        <time>2026-04-15T21:24:55Z</time>
      </trkpt>
      <trkpt lat="52.189049972221255" lon="8.144649965688586">
        <ele>136</ele>
        <time>2026-04-15T21:25:39Z</time>
      </trkpt>
      <trkpt lat="52.187149962410331" lon="8.145420011132956">
        <ele>144</ele>
        <time>2026-04-15T21:26:31Z</time>
      </trkpt>
      <trkpt lat="52.18658996745944" lon="8.145640036091209">
        <ele>144</ele>
        <time>2026-04-15T21:26:46Z</time>
      </trkpt>
      <trkpt lat="52.185780024155974" lon="8.145970031619072">
        <ele>148</ele>
        <time>2026-04-15T21:27:09Z</time>
      </trkpt>
      <trkpt lat="52.185970041900873" lon="8.147480031475425">
        <ele>152</ele>
        <time>2026-04-15T21:27:36Z</time>
      </trkpt>
      <trkpt lat="52.18602997250855" lon="8.147780019789934">
        <ele>152</ele>
        <time>2026-04-15T21:27:41Z</time>
      </trkpt>
      <trkpt lat="52.186170034110546" lon="8.148530032485724">
        <ele>152</ele>
        <time>2026-04-15T21:27:53Z</time>
      </trkpt>
      <trkpt lat="52.186229964718223" lon="8.148900009691715">
        <ele>152</ele>
        <time>2026-04-15T21:28:00Z</time>
      </trkpt>
      <trkpt lat="52.186319986358285" lon="8.149339975789189">
        <ele>152</ele>
        <time>2026-04-15T21:28:07Z</time>
      </trkpt>
      <trkpt lat="52.186440015211701" lon="8.149950010702014">
        <ele>153</ele>
        <time>2026-04-15T21:28:18Z</time>
      </trkpt>
      <trkpt lat="52.186119994148612" lon="8.150270031765103">
        <ele>153</ele>
        <time>2026-04-15T21:28:30Z</time>
      </trkpt>
      <trkpt lat="52.185680028051138" lon="8.15047999843955">
        <ele>153</ele>
        <time>2026-04-15T21:28:43Z</time>
      </trkpt>
      <trkpt lat="52.185090025886893" lon="8.150719972327352">
        <ele>155</ele>
        <time>2026-04-15T21:28:59Z</time>
      </trkpt>
      <trkpt lat="52.184500023722649" lon="8.150979978963733">
        <ele>156</ele>
        <time>2026-04-15T21:29:15Z</time>
      </trkpt>
      <trkpt lat="52.182189971208572" lon="8.151969965547323">
        <ele>147</ele>
        <time>2026-04-15T21:30:19Z</time>
      </trkpt>
      <trkpt lat="52.181740030646324" lon="8.152170041576028">
        <ele>147</ele>
        <time>2026-04-15T21:30:31Z</time>
      </trkpt>
      <trkpt lat="52.181350020691752" lon="8.152340026572347">
        <ele>145</ele>
        <time>2026-04-15T21:30:42Z</time>
      </trkpt>
      <trkpt lat="52.180570000782609" lon="8.15267002210021">
        <ele>144</ele>
        <time>2026-04-15T21:31:04Z</time>
      </trkpt>
      <trkpt lat="52.180600007995963" lon="8.15297001041472">
        <ele>144</ele>
        <time>2026-04-15T21:31:09Z</time>
      </trkpt>
      <trkpt lat="52.180579975247383" lon="8.15337996929884">
        <ele>144</ele>
        <time>2026-04-15T21:31:16Z</time>
      </trkpt>
      <trkpt lat="52.180509986355901" lon="8.155739977955818">
        <ele>141</ele>
        <time>2026-04-15T21:31:54Z</time>
      </trkpt>
      <trkpt lat="52.180490037426353" lon="8.156540030613542">
        <ele>141</ele>
        <time>2026-04-15T21:32:07Z</time>
      </trkpt>
      <trkpt lat="52.180479979142547" lon="8.156840018928051">
        <ele>141</ele>
        <time>2026-04-15T21:32:12Z</time>
      </trkpt>
      <trkpt lat="52.180460030212998" lon="8.157539991661906">
        <ele>140</ele>
        <time>2026-04-15T21:32:24Z</time>
      </trkpt>
      <trkpt lat="52.180439997464418" lon="8.157850038260222">
        <ele>140</ele>
        <time>2026-04-15T21:32:29Z</time>
      </trkpt>
      <trkpt lat="52.180409990251064" lon="8.158369967713952">
        <ele>140</ele>
        <time>2026-04-15T21:32:37Z</time>
      </trkpt>
      <trkpt lat="52.18037998303771" lon="8.158959969878197">
        <ele>140</ele>
        <time>2026-04-15T21:32:47Z</time>
      </trkpt>
      <trkpt lat="52.180330026894808" lon="8.159470008686185">
        <ele>138</ele>
        <time>2026-04-15T21:32:56Z</time>
      </trkpt>
      <trkpt lat="52.179749999195337" lon="8.160269977524877">
        <ele>138</ele>
        <time>2026-04-15T21:33:16Z</time>
      </trkpt>
      <trkpt lat="52.179469959810376" lon="8.160650013014674">
        <ele>138</ele>
        <time>2026-04-15T21:33:26Z</time>
      </trkpt>
      <trkpt lat="52.179060000926256" lon="8.161189975216985">
        <ele>138</ele>
        <time>2026-04-15T21:33:40Z</time>
      </trkpt>
      <trkpt lat="52.178860008716583" lon="8.161419974640012">
        <ele>138</ele>
        <time>2026-04-15T21:33:46Z</time>
      </trkpt>
      <trkpt lat="52.17866001650691" lon="8.161649974063039">
        <ele>138</ele>
        <time>2026-04-15T21:33:53Z</time>
      </trkpt>
      <trkpt lat="52.17823002487421" lon="8.162069991230965">
        <ele>138</ele>
        <time>2026-04-15T21:34:06Z</time>
      </trkpt>
      <trkpt lat="52.178119970485568" lon="8.162350030615926">
        <ele>138</ele>
        <time>2026-04-15T21:34:12Z</time>
      </trkpt>
      <trkpt lat="52.178089963272214" lon="8.162880018353462">
        <ele>133</ele>
        <time>2026-04-15T21:34:21Z</time>
      </trkpt>
      <trkpt lat="52.178040007129312" lon="8.164109978824854">
        <ele>133</ele>
        <time>2026-04-15T21:34:41Z</time>
      </trkpt>
      <trkpt lat="52.178009999915957" lon="8.164920005947352">
        <ele>130</ele>
        <time>2026-04-15T21:34:54Z</time>
      </trkpt>
      <trkpt lat="52.177979992702603" lon="8.165240027010441">
        <ele>130</ele>
        <time>2026-04-15T21:34:59Z</time>
      </trkpt>
      <trkpt lat="52.177889971062541" lon="8.165719974786043">
        <ele>130</ele>
        <time>2026-04-15T21:35:08Z</time>
      </trkpt>
      <trkpt lat="52.177710011601448" lon="8.166650030761957">
        <ele>131</ele>
        <time>2026-04-15T21:35:24Z</time>
      </trkpt>
      <trkpt lat="52.177570033818483" lon="8.167370036244392">
        <ele>131</ele>
        <time>2026-04-15T21:35:36Z</time>
      </trkpt>
      <trkpt lat="52.177510019391775" lon="8.167659966275096">
        <ele>129</ele>
        <time>2026-04-15T21:35:41Z</time>
      </trkpt>
      <trkpt lat="52.177359983325005" lon="8.168460018932819">
        <ele>129</ele>
        <time>2026-04-15T21:35:55Z</time>
      </trkpt>
      <trkpt lat="52.177310027182102" lon="8.168909959495068">
        <ele>129</ele>
        <time>2026-04-15T21:36:02Z</time>
      </trkpt>
      <trkpt lat="52.177289994433522" lon="8.169250013306737">
        <ele>129</ele>
        <time>2026-04-15T21:36:08Z</time>
      </trkpt>
      <trkpt lat="52.17724003829062" lon="8.170879958197475">
        <ele>126</ele>
        <time>2026-04-15T21:36:35Z</time>
      </trkpt>
      <trkpt lat="52.177289994433522" lon="8.17116997204721">
        <ele>124</ele>
        <time>2026-04-15T21:36:39Z</time>
      </trkpt>
      <trkpt lat="52.177380016073585" lon="8.171659978106618">
        <ele>124</ele>
        <time>2026-04-15T21:36:48Z</time>
      </trkpt>
      <trkpt lat="52.177689978852868" lon="8.17346996627748">
        <ele>121</ele>
        <time>2026-04-15T21:37:19Z</time>
      </trkpt>
      <trkpt lat="52.177700037136674" lon="8.173840027302504">
        <ele>121</ele>
        <time>2026-04-15T21:37:25Z</time>
      </trkpt>
      <trkpt lat="52.177419997751713" lon="8.17437001504004">
        <ele>117</ele>
        <time>2026-04-15T21:37:37Z</time>
      </trkpt>
      <trkpt lat="52.17724003829062" lon="8.174479985609651">
        <ele>117</ele>
        <time>2026-04-15T21:37:42Z</time>
      </trkpt>
      <trkpt lat="52.176969973370433" lon="8.174540000036359">
        <ele>117</ele>
        <time>2026-04-15T21:37:49Z</time>
      </trkpt>
      <trkpt lat="52.176990006119013" lon="8.174869995564222">
        <ele>117</ele>
        <time>2026-04-15T21:37:58Z</time>
      </trkpt>
      <trkpt lat="52.177139958366752" lon="8.175060013309121">
        <ele>112</ele>
        <time>2026-04-15T21:38:03Z</time>
      </trkpt>
      <trkpt lat="52.177810007706285" lon="8.175889989361167">
        <ele>110</ele>
        <time>2026-04-15T21:38:26Z</time>
      </trkpt>
      <trkpt lat="52.178000025451183" lon="8.176149995997548">
        <ele>110</ele>
        <time>2026-04-15T21:38:32Z</time>
      </trkpt>
      <trkpt lat="52.178149977698922" lon="8.176410002633929">
        <ele>110</ele>
        <time>2026-04-15T21:38:38Z</time>
      </trkpt>
      <trkpt lat="52.178260032087564" lon="8.176800012588501">
        <ele>110</ele>
        <time>2026-04-15T21:38:45Z</time>
      </trkpt>
      <trkpt lat="52.178309988230467" lon="8.177469978109002">
        <ele>109</ele>
        <time>2026-04-15T21:38:57Z</time>
      </trkpt>
      <trkpt lat="52.178309988230467" lon="8.177789999172092">
        <ele>109</ele>
        <time>2026-04-15T21:39:02Z</time>
      </trkpt>
      <trkpt lat="52.178319962695241" lon="8.178210016340017">
        <ele>109</ele>
        <time>2026-04-15T21:39:09Z</time>
      </trkpt>
      <trkpt lat="52.178339995443821" lon="8.178519979119301">
        <ele>109</ele>
        <time>2026-04-15T21:39:14Z</time>
      </trkpt>
      <trkpt lat="52.178409984335303" lon="8.178960029035807">
        <ele>109</ele>
        <time>2026-04-15T21:39:21Z</time>
      </trkpt>
      <trkpt lat="52.178460024297237" lon="8.17924995906651">
        <ele>109</ele>
        <time>2026-04-15T21:39:26Z</time>
      </trkpt>
      <trkpt lat="52.178539987653494" lon="8.179669976234436">
        <ele>109</ele>
        <time>2026-04-15T21:39:33Z</time>
      </trkpt>
      <trkpt lat="52.178609976544976" lon="8.180069960653782">
        <ele>109</ele>
        <time>2026-04-15T21:39:40Z</time>
      </trkpt>
      <trkpt lat="52.178649958223104" lon="8.180549992248416">
        <ele>107</ele>
        <time>2026-04-15T21:39:48Z</time>
      </trkpt>
      <trkpt lat="52.178620034828782" lon="8.180830031633377">
        <ele>107</ele>
        <time>2026-04-15T21:39:53Z</time>
      </trkpt>
      <trkpt lat="52.178669990971684" lon="8.181639974936843">
        <ele>107</ele>
        <time>2026-04-15T21:40:07Z</time>
      </trkpt>
      <trkpt lat="52.178709972649813" lon="8.182519990950823">
        <ele>108</ele>
        <time>2026-04-15T21:40:21Z</time>
      </trkpt>
      <trkpt lat="52.178760012611747" lon="8.183319959789515">
        <ele>108</ele>
        <time>2026-04-15T21:40:34Z</time>
      </trkpt>
      <trkpt lat="52.178799994289875" lon="8.184110037982464">
        <ele>109</ele>
        <time>2026-04-15T21:40:47Z</time>
      </trkpt>
      <trkpt lat="52.178799994289875" lon="8.184519996866584">
        <ele>109</ele>
        <time>2026-04-15T21:40:54Z</time>
      </trkpt>
      <trkpt lat="52.178799994289875" lon="8.184849992394447">
        <ele>109</ele>
        <time>2026-04-15T21:40:59Z</time>
      </trkpt>
      <trkpt lat="52.178760012611747" lon="8.186160000041127">
        <ele>109</ele>
        <time>2026-04-15T21:41:21Z</time>
      </trkpt>
      <trkpt lat="52.178649958223104" lon="8.188009969890118">
        <ele>106</ele>
        <time>2026-04-15T21:41:52Z</time>
      </trkpt>
      <trkpt lat="52.178600002080202" lon="8.188940025866032">
        <ele>106</ele>
        <time>2026-04-15T21:42:07Z</time>
      </trkpt>
      <trkpt lat="52.178579969331622" lon="8.189330035820603">
        <ele>104</ele>
        <time>2026-04-15T21:42:13Z</time>
      </trkpt>
      <trkpt lat="52.178569994866848" lon="8.189790034666657">
        <ele>104</ele>
        <time>2026-04-15T21:42:21Z</time>
      </trkpt>
      <trkpt lat="52.178600002080202" lon="8.190160011872649">
        <ele>104</ele>
        <time>2026-04-15T21:42:27Z</time>
      </trkpt>
      <trkpt lat="52.178669990971684" lon="8.190429992973805">
        <ele>104</ele>
        <time>2026-04-15T21:42:32Z</time>
      </trkpt>
      <trkpt lat="52.178880041465163" lon="8.190950006246567">
        <ele>102</ele>
        <time>2026-04-15T21:42:42Z</time>
      </trkpt>
      <trkpt lat="52.178909964859486" lon="8.191219987347722">
        <ele>102</ele>
        <time>2026-04-15T21:42:48Z</time>
      </trkpt>
      <trkpt lat="52.178690023720264" lon="8.192829983308911">
        <ele>100</ele>
        <time>2026-04-15T21:43:15Z</time>
      </trkpt>
      <trkpt lat="52.178600002080202" lon="8.193440018221736">
        <ele>100</ele>
        <time>2026-04-15T21:43:25Z</time>
      </trkpt>
      <trkpt lat="52.178449966013432" lon="8.194239987060428">
        <ele>100</ele>
        <time>2026-04-15T21:43:39Z</time>
      </trkpt>
      <trkpt lat="52.178360028192401" lon="8.194769974797964">
        <ele>100</ele>
        <time>2026-04-15T21:43:48Z</time>
      </trkpt>
      <trkpt lat="52.178330020979047" lon="8.195159984752536">
        <ele>100</ele>
        <time>2026-04-15T21:43:54Z</time>
      </trkpt>
      <trkpt lat="52.178309988230467" lon="8.195589976385236">
        <ele>101</ele>
        <time>2026-04-15T21:44:01Z</time>
      </trkpt>
      <trkpt lat="52.178309988230467" lon="8.196000019088388">
        <ele>101</ele>
        <time>2026-04-15T21:44:08Z</time>
      </trkpt>
      <trkpt lat="52.178300013765693" lon="8.196300007402897">
        <ele>101</ele>
        <time>2026-04-15T21:44:13Z</time>
      </trkpt>
      <trkpt lat="52.178200017660856" lon="8.197090001776815">
        <ele>101</ele>
        <time>2026-04-15T21:44:26Z</time>
      </trkpt>
      <trkpt lat="52.178030032664537" lon="8.197670029476285">
        <ele>99</ele>
        <time>2026-04-15T21:44:37Z</time>
      </trkpt>
      <trkpt lat="52.177889971062541" lon="8.198060039430857">
        <ele>99</ele>
        <time>2026-04-15T21:44:44Z</time>
      </trkpt>
      <trkpt lat="52.177719986066222" lon="8.198539987206459">
        <ele>99</ele>
        <time>2026-04-15T21:44:53Z</time>
      </trkpt>
      <trkpt lat="52.177540026605129" lon="8.199069974943996">
        <ele>96</ele>
        <time>2026-04-15T21:45:03Z</time>
      </trkpt>
      <trkpt lat="52.177359983325005" lon="8.199619995430112">
        <ele>96</ele>
        <time>2026-04-15T21:45:13Z</time>
      </trkpt>
      <trkpt lat="52.177280019968748" lon="8.199970023706555">
        <ele>96</ele>
        <time>2026-04-15T21:45:20Z</time>
      </trkpt>
      <trkpt lat="52.17722000554204" lon="8.200319968163967">
        <ele>95</ele>
        <time>2026-04-15T21:45:25Z</time>
      </trkpt>
      <trkpt lat="52.176839970052242" lon="8.20417002774775">
        <ele>97</ele>
        <time>2026-04-15T21:46:29Z</time>
      </trkpt>
      <trkpt lat="52.17676998116076" lon="8.205020036548376">
        <ele>97</ele>
        <time>2026-04-15T21:46:43Z</time>
      </trkpt>
      <trkpt lat="52.176690017804503" lon="8.205899968743324">
        <ele>94</ele>
        <time>2026-04-15T21:46:58Z</time>
      </trkpt>
      <trkpt lat="52.176520032808185" lon="8.207639968022704">
        <ele>95</ele>
        <time>2026-04-15T21:47:27Z</time>
      </trkpt>
      <trkpt lat="52.176439985632896" lon="8.208199962973595">
        <ele>95</ele>
        <time>2026-04-15T21:47:36Z</time>
      </trkpt>
      <trkpt lat="52.176390029489994" lon="8.208579998463392">
        <ele>95</ele>
        <time>2026-04-15T21:47:43Z</time>
      </trkpt>
      <trkpt lat="52.176260026171803" lon="8.20952002890408">
        <ele>96</ele>
        <time>2026-04-15T21:47:58Z</time>
      </trkpt>
      <trkpt lat="52.176179978996515" lon="8.210029983893037">
        <ele>96</ele>
        <time>2026-04-15T21:48:07Z</time>
      </trkpt>
      <trkpt lat="52.176100015640259" lon="8.210389986634255">
        <ele>96</ele>
        <time>2026-04-15T21:48:13Z</time>
      </trkpt>
      <trkpt lat="52.175949979573488" lon="8.210889967158437">
        <ele>100</ele>
        <time>2026-04-15T21:48:22Z</time>
      </trkpt>
      <trkpt lat="52.175800027325749" lon="8.211230020970106">
        <ele>100</ele>
        <time>2026-04-15T21:48:29Z</time>
      </trkpt>
      <trkpt lat="52.175589976832271" lon="8.21153998374939">
        <ele>100</ele>
        <time>2026-04-15T21:48:37Z</time>
      </trkpt>
      <trkpt lat="52.175370035693049" lon="8.211809964850545">
        <ele>102</ele>
        <time>2026-04-15T21:48:44Z</time>
      </trkpt>
      <trkpt lat="52.175180017948151" lon="8.211980033665896">
        <ele>102</ele>
        <time>2026-04-15T21:48:50Z</time>
      </trkpt>
      <trkpt lat="52.174969967454672" lon="8.212129985913634">
        <ele>102</ele>
        <time>2026-04-15T21:48:56Z</time>
      </trkpt>
      <trkpt lat="52.174479961395264" lon="8.212429974228144">
        <ele>102</ele>
        <time>2026-04-15T21:49:10Z</time>
      </trkpt>
      <trkpt lat="52.173990039154887" lon="8.212719988077879">
        <ele>99</ele>
        <time>2026-04-15T21:49:24Z</time>
      </trkpt>
      <trkpt lat="52.173579996451735" lon="8.212970020249486">
        <ele>99</ele>
        <time>2026-04-15T21:49:36Z</time>
      </trkpt>
      <trkpt lat="52.172769969329238" lon="8.213460026308894">
        <ele>98</ele>
        <time>2026-04-15T21:49:59Z</time>
      </trkpt>
      <trkpt lat="52.172269988805056" lon="8.213760014623404">
        <ele>100</ele>
        <time>2026-04-15T21:50:13Z</time>
      </trkpt>
      <trkpt lat="52.171560041606426" lon="8.214180031791329">
        <ele>100</ele>
        <time>2026-04-15T21:50:33Z</time>
      </trkpt>
      <trkpt lat="52.171389972791076" lon="8.214280027896166">
        <ele>101</ele>
        <time>2026-04-15T21:50:38Z</time>
      </trkpt>
      <trkpt lat="52.17111999168992" lon="8.214440038427711">
        <ele>101</ele>
        <time>2026-04-15T21:50:46Z</time>
      </trkpt>
      <trkpt lat="52.169949961826205" lon="8.21514998562634">
        <ele>102</ele>
        <time>2026-04-15T21:51:19Z</time>
      </trkpt>
      <trkpt lat="52.169070029631257" lon="8.215669998899102">
        <ele>104</ele>
        <time>2026-04-15T21:51:44Z</time>
      </trkpt>
      <trkpt lat="52.16879996471107" lon="8.215820034965873">
        <ele>104</ele>
        <time>2026-04-15T21:51:52Z</time>
      </trkpt>
      <trkpt lat="52.168520009145141" lon="8.21603000164032">
        <ele>104</ele>
        <time>2026-04-15T21:52:00Z</time>
      </trkpt>
      <trkpt lat="52.168260002508759" lon="8.216280033811927">
        <ele>104</ele>
        <time>2026-04-15T21:52:08Z</time>
      </trkpt>
      <trkpt lat="52.167649967595935" lon="8.217379990965128">
        <ele>108</ele>
        <time>2026-04-15T21:52:32Z</time>
      </trkpt>
      <trkpt lat="52.16707999818027" lon="8.218539962545037">
        <ele>108</ele>
        <time>2026-04-15T21:52:57Z</time>
      </trkpt>
      <trkpt lat="52.166269971057773" lon="8.22009002789855">
        <ele>113</ele>
        <time>2026-04-15T21:53:30Z</time>
      </trkpt>
      <trkpt lat="52.164740022271872" lon="8.223069962114096">
        <ele>114</ele>
        <time>2026-04-15T21:54:34Z</time>
      </trkpt>
      <trkpt lat="52.163720028474927" lon="8.225020011886954">
        <ele>115</ele>
        <time>2026-04-15T21:55:16Z</time>
      </trkpt>
      <trkpt lat="52.163599999621511" lon="8.225250011309981">
        <ele>114</ele>
        <time>2026-04-15T21:55:21Z</time>
      </trkpt>
      <trkpt lat="52.16344996355474" lon="8.225559974089265">
        <ele>114</ele>
        <time>2026-04-15T21:55:27Z</time>
      </trkpt>
      <trkpt lat="52.163249971345067" lon="8.225930035114288">
        <ele>114</ele>
        <time>2026-04-15T21:55:35Z</time>
      </trkpt>
      <trkpt lat="52.163119968026876" lon="8.226160034537315">
        <ele>114</ele>
        <time>2026-04-15T21:55:41Z</time>
      </trkpt>
      <trkpt lat="52.162970015779138" lon="8.226379975676537">
        <ele>114</ele>
        <time>2026-04-15T21:55:46Z</time>
      </trkpt>
      <trkpt lat="52.162789972499013" lon="8.226569993421435">
        <ele>112</ele>
        <time>2026-04-15T21:55:52Z</time>
      </trkpt>
      <trkpt lat="52.162549998611212" lon="8.226769985631108">
        <ele>112</ele>
        <time>2026-04-15T21:55:59Z</time>
      </trkpt>
      <trkpt lat="52.162319999188185" lon="8.226899988949299">
        <ele>112</ele>
        <time>2026-04-15T21:56:05Z</time>
      </trkpt>
      <trkpt lat="52.162020010873675" lon="8.227039966732264">
        <ele>112</ele>
        <time>2026-04-15T21:56:14Z</time>
      </trkpt>
      <trkpt lat="52.161829993128777" lon="8.2271399628371">
        <ele>108</ele>
        <time>2026-04-15T21:56:19Z</time>
      </trkpt>
      <trkpt lat="52.161639975383878" lon="8.227239958941937">
        <ele>108</ele>
        <time>2026-04-15T21:56:24Z</time>
      </trkpt>
      <trkpt lat="52.161430008709431" lon="8.227369962260127">
        <ele>108</ele>
        <time>2026-04-15T21:56:31Z</time>
      </trkpt>
      <trkpt lat="52.161249965429306" lon="8.227529972791672">
        <ele>108</ele>
        <time>2026-04-15T21:56:36Z</time>
      </trkpt>
      <trkpt lat="52.161079980432987" lon="8.227740023285151">
        <ele>108</ele>
        <time>2026-04-15T21:56:42Z</time>
      </trkpt>
      <trkpt lat="52.160949977114797" lon="8.227959964424372">
        <ele>104</ele>
        <time>2026-04-15T21:56:47Z</time>
      </trkpt>
      <trkpt lat="52.160840006545186" lon="8.228209996595979">
        <ele>104</ele>
        <time>2026-04-15T21:56:52Z</time>
      </trkpt>
      <trkpt lat="52.16074001044035" lon="8.228479977697134">
        <ele>104</ele>
        <time>2026-04-15T21:56:57Z</time>
      </trkpt>
      <trkpt lat="52.160670021548867" lon="8.228790024295449">
        <ele>104</ele>
        <time>2026-04-15T21:57:02Z</time>
      </trkpt>
      <trkpt lat="52.160619981586933" lon="8.229080038145185">
        <ele>104</ele>
        <time>2026-04-15T21:57:07Z</time>
      </trkpt>
      <trkpt lat="52.160600032657385" lon="8.22948002256453">
        <ele>104</ele>
        <time>2026-04-15T21:57:14Z</time>
      </trkpt>
      <trkpt lat="52.160640014335513" lon="8.230019984766841">
        <ele>104</ele>
        <time>2026-04-15T21:57:23Z</time>
      </trkpt>
      <trkpt lat="52.160700028762221" lon="8.23031997308135">
        <ele>104</ele>
        <time>2026-04-15T21:57:28Z</time>
      </trkpt>
      <trkpt lat="52.160800024867058" lon="8.23066002689302">
        <ele>104</ele>
        <time>2026-04-15T21:57:34Z</time>
      </trkpt>
      <trkpt lat="52.160960035398602" lon="8.231009971350431">
        <ele>111</ele>
        <time>2026-04-15T21:57:41Z</time>
      </trkpt>
      <trkpt lat="52.16117000207305" lon="8.231429988518357">
        <ele>111</ele>
        <time>2026-04-15T21:57:50Z</time>
      </trkpt>
      <trkpt lat="52.161339987069368" lon="8.231740035116673">
        <ele>111</ele>
        <time>2026-04-15T21:57:57Z</time>
      </trkpt>
      <trkpt lat="52.161479964852333" lon="8.23208000510931">
        <ele>111</ele>
        <time>2026-04-15T21:58:04Z</time>
      </trkpt>
      <trkpt lat="52.16157996095717" lon="8.232430033385754">
        <ele>111</ele>
        <time>2026-04-15T21:58:10Z</time>
      </trkpt>
      <trkpt lat="52.161669982597232" lon="8.23280998505652">
        <ele>111</ele>
        <time>2026-04-15T21:58:17Z</time>
      </trkpt>
      <trkpt lat="52.161720022559166" lon="8.233150038868189">
        <ele>111</ele>
        <time>2026-04-15T21:58:23Z</time>
      </trkpt>
      <trkpt lat="52.161769978702068" lon="8.233490008860827">
        <ele>111</ele>
        <time>2026-04-15T21:58:28Z</time>
      </trkpt>
      <trkpt lat="52.161969970911741" lon="8.234939994290471">
        <ele>113</ele>
        <time>2026-04-15T21:58:53Z</time>
      </trkpt>
      <trkpt lat="52.162029985338449" lon="8.235460007563233">
        <ele>113</ele>
        <time>2026-04-15T21:59:01Z</time>
      </trkpt>
      <trkpt lat="52.162059992551804" lon="8.235780028626323">
        <ele>111</ele>
        <time>2026-04-15T21:59:07Z</time>
      </trkpt>
      <trkpt lat="52.162129981443286" lon="8.236630037426949">
        <ele>111</ele>
        <time>2026-04-15T21:59:21Z</time>
      </trkpt>
      <trkpt lat="52.162169963121414" lon="8.237130017951131">
        <ele>111</ele>
        <time>2026-04-15T21:59:29Z</time>
      </trkpt>
      <trkpt lat="52.162199970334768" lon="8.237509969621897">
        <ele>105</ele>
        <time>2026-04-15T21:59:35Z</time>
      </trkpt>
      <trkpt lat="52.162220003083348" lon="8.237899979576469">
        <ele>105</ele>
        <time>2026-04-15T21:59:42Z</time>
      </trkpt>
      <trkpt lat="52.162210028618574" lon="8.238370036706328">
        <ele>105</ele>
        <time>2026-04-15T21:59:49Z</time>
      </trkpt>
      <trkpt lat="52.162199970334768" lon="8.238789970055223">
        <ele>105</ele>
        <time>2026-04-15T21:59:56Z</time>
      </trkpt>
      <trkpt lat="52.162199970334768" lon="8.239279976114631">
        <ele>102</ele>
        <time>2026-04-15T22:00:04Z</time>
      </trkpt>
      <trkpt lat="52.162189995869994" lon="8.239929992705584">
        <ele>102</ele>
        <time>2026-04-15T22:00:15Z</time>
      </trkpt>
      <trkpt lat="52.162169963121414" lon="8.24131996370852">
        <ele>103</ele>
        <time>2026-04-15T22:00:38Z</time>
      </trkpt>
      <trkpt lat="52.162150014191866" lon="8.242190005257726">
        <ele>103</ele>
        <time>2026-04-15T22:00:52Z</time>
      </trkpt>
      <trkpt lat="52.162150014191866" lon="8.242510026320815">
        <ele>105</ele>
        <time>2026-04-15T22:00:57Z</time>
      </trkpt>
      <trkpt lat="52.162140039727092" lon="8.242880003526807">
        <ele>105</ele>
        <time>2026-04-15T22:01:03Z</time>
      </trkpt>
      <trkpt lat="52.162120006978512" lon="8.244229992851615">
        <ele>105</ele>
        <time>2026-04-15T22:01:26Z</time>
      </trkpt>
      <trkpt lat="52.162120006978512" lon="8.244559988379479">
        <ele>105</ele>
        <time>2026-04-15T22:01:31Z</time>
      </trkpt>
      <trkpt lat="52.162099974229932" lon="8.244889983907342">
        <ele>105</ele>
        <time>2026-04-15T22:01:36Z</time>
      </trkpt>
      <trkpt lat="52.162059992551804" lon="8.245449978858233">
        <ele>105</ele>
        <time>2026-04-15T22:01:46Z</time>
      </trkpt>
      <trkpt lat="52.162020010873675" lon="8.245749967172742">
        <ele>105</ele>
        <time>2026-04-15T22:01:50Z</time>
      </trkpt>
      <trkpt lat="52.161980029195547" lon="8.246060013771057">
        <ele>105</ele>
        <time>2026-04-15T22:01:56Z</time>
      </trkpt>
      <trkpt lat="52.161890007555485" lon="8.246659990400076">
        <ele>105</ele>
        <time>2026-04-15T22:02:06Z</time>
      </trkpt>
      <trkpt lat="52.161829993128777" lon="8.247070033103228">
        <ele>104</ele>
        <time>2026-04-15T22:02:13Z</time>
      </trkpt>
      <trkpt lat="52.161680040881038" lon="8.248179964721203">
        <ele>104</ele>
        <time>2026-04-15T22:02:31Z</time>
      </trkpt>
      <trkpt lat="52.161509972065687" lon="8.249359969049692">
        <ele>103</ele>
        <time>2026-04-15T22:02:51Z</time>
      </trkpt>
      <trkpt lat="52.161179976537824" lon="8.251689970493317">
        <ele>99</ele>
        <time>2026-04-15T22:03:31Z</time>
      </trkpt>
      <trkpt lat="52.161119962111115" lon="8.252049973234534">
        <ele>94</ele>
        <time>2026-04-15T22:03:37Z</time>
      </trkpt>
      <trkpt lat="52.161030024290085" lon="8.25233998708427">
        <ele>94</ele>
        <time>2026-04-15T22:03:42Z</time>
      </trkpt>
      <trkpt lat="52.160919969901443" lon="8.252660008147359">
        <ele>94</ele>
        <time>2026-04-15T22:03:48Z</time>
      </trkpt>
      <trkpt lat="52.160779992118478" lon="8.252680040895939">
        <ele>94</ele>
        <time>2026-04-15T22:03:53Z</time>
      </trkpt>
      <trkpt lat="52.159569980576634" lon="8.25249002315104">
        <ele>94</ele>
        <time>2026-04-15T22:04:26Z</time>
      </trkpt>
      <trkpt lat="52.158709997311234" lon="8.252349961549044">
        <ele>98</ele>
        <time>2026-04-15T22:04:49Z</time>
      </trkpt>
      <trkpt lat="52.158359969034791" lon="8.252300005406141">
        <ele>98</ele>
        <time>2026-04-15T22:04:58Z</time>
      </trkpt>
      <trkpt lat="52.157869962975383" lon="8.252219958230853">
        <ele>102</ele>
        <time>2026-04-15T22:05:11Z</time>
      </trkpt>
      <trkpt lat="52.157450029626489" lon="8.252149969339371">
        <ele>102</ele>
        <time>2026-04-15T22:05:23Z</time>
      </trkpt>
      <trkpt lat="52.157100001350045" lon="8.252109987661243">
        <ele>103</ele>
        <time>2026-04-15T22:05:32Z</time>
      </trkpt>
      <trkpt lat="52.156890034675598" lon="8.252090038731694">
        <ele>103</ele>
        <time>2026-04-15T22:05:38Z</time>
      </trkpt>
      <trkpt lat="52.156849969178438" lon="8.252320038154721">
        <ele>103</ele>
        <time>2026-04-15T22:05:44Z</time>
      </trkpt>
      <trkpt lat="52.156900009140372" lon="8.25289998203516">
        <ele>103</ele>
        <time>2026-04-15T22:05:54Z</time>
      </trkpt>
      <trkpt lat="52.156900009140372" lon="8.253250010311604">
        <ele>104</ele>
        <time>2026-04-15T22:05:59Z</time>
      </trkpt>
      <trkpt lat="52.156879976391792" lon="8.254060037434101">
        <ele>104</ele>
        <time>2026-04-15T22:06:13Z</time>
      </trkpt>
      <trkpt lat="52.156259967014194" lon="8.254179982468486">
        <ele>105</ele>
        <time>2026-04-15T22:06:29Z</time>
      </trkpt>
      <trkpt lat="52.155669964849949" lon="8.254279978573322">
        <ele>105</ele>
        <time>2026-04-15T22:06:45Z</time>
      </trkpt>
      <trkpt lat="52.154409997165203" lon="8.254490029066801">
        <ele>108</ele>
        <time>2026-04-15T22:07:19Z</time>
      </trkpt>
      <trkpt lat="52.153810020536184" lon="8.254590025171638">
        <ele>108</ele>
        <time>2026-04-15T22:07:35Z</time>
      </trkpt>
      <trkpt lat="52.153589995577931" lon="8.254560017958283">
        <ele>109</ele>
        <time>2026-04-15T22:07:41Z</time>
      </trkpt>
      <trkpt lat="52.153450017794967" lon="8.254690021276474">
        <ele>109</ele>
        <time>2026-04-15T22:07:46Z</time>
      </trkpt>
      <trkpt lat="52.153429985046387" lon="8.2576899882406">
        <ele>111</ele>
        <time>2026-04-15T22:08:36Z</time>
      </trkpt>
      <trkpt lat="52.153420010581613" lon="8.260370017960668">
        <ele>116</ele>
        <time>2026-04-15T22:09:20Z</time>
      </trkpt>
      <trkpt lat="52.153420010581613" lon="8.260730020701885">
        <ele>116</ele>
        <time>2026-04-15T22:09:25Z</time>
      </trkpt>
      <trkpt lat="52.153420010581613" lon="8.261199994012713">
        <ele>114</ele>
        <time>2026-04-15T22:09:33Z</time>
      </trkpt>
      <trkpt lat="52.153399977833033" lon="8.261869959533215">
        <ele>114</ele>
        <time>2026-04-15T22:09:44Z</time>
      </trkpt>
      <trkpt lat="52.153390003368258" lon="8.262919960543513">
        <ele>115</ele>
        <time>2026-04-15T22:10:01Z</time>
      </trkpt>
      <trkpt lat="52.153390003368258" lon="8.263330003246665">
        <ele>115</ele>
        <time>2026-04-15T22:10:08Z</time>
      </trkpt>
      <trkpt lat="52.153529981151223" lon="8.26480002142489">
        <ele>116</ele>
        <time>2026-04-15T22:10:32Z</time>
      </trkpt>
      <trkpt lat="52.15362997725606" lon="8.265950018540025">
        <ele>118</ele>
        <time>2026-04-15T22:10:52Z</time>
      </trkpt>
      <trkpt lat="52.15319998562336" lon="8.26624003238976">
        <ele>118</ele>
        <time>2026-04-15T22:11:04Z</time>
      </trkpt>
      <trkpt lat="52.152990018948913" lon="8.266419991850853">
        <ele>119</ele>
        <time>2026-04-15T22:11:10Z</time>
      </trkpt>
      <trkpt lat="52.152690030634403" lon="8.266710005700588">
        <ele>119</ele>
        <time>2026-04-15T22:11:20Z</time>
      </trkpt>
      <trkpt lat="52.152479980140924" lon="8.266900023445487">
        <ele>120</ele>
        <time>2026-04-15T22:11:26Z</time>
      </trkpt>
      <trkpt lat="52.152179991826415" lon="8.267130022868514">
        <ele>120</ele>
        <time>2026-04-15T22:11:35Z</time>
      </trkpt>
      <trkpt lat="52.15191001072526" lon="8.267320040613413">
        <ele>120</ele>
        <time>2026-04-15T22:11:43Z</time>
      </trkpt>
      <trkpt lat="52.15105002745986" lon="8.267790013924241">
        <ele>125</ele>
        <time>2026-04-15T22:12:07Z</time>
      </trkpt>
      <trkpt lat="52.150839976966381" lon="8.267869977280498">
        <ele>125</ele>
        <time>2026-04-15T22:12:13Z</time>
      </trkpt>
      <trkpt lat="52.15057997033" lon="8.267929991707206">
        <ele>130</ele>
        <time>2026-04-15T22:12:20Z</time>
      </trkpt>
      <trkpt lat="52.150400010868907" lon="8.26793996617198">
        <ele>130</ele>
        <time>2026-04-15T22:12:25Z</time>
      </trkpt>
      <trkpt lat="52.150219967588782" lon="8.267899984493852">
        <ele>130</ele>
        <time>2026-04-15T22:12:30Z</time>
      </trkpt>
      <trkpt lat="52.149570034816861" lon="8.268229980021715">
        <ele>134</ele>
        <time>2026-04-15T22:12:48Z</time>
      </trkpt>
      <trkpt lat="52.148969974368811" lon="8.268550001084805">
        <ele>134</ele>
        <time>2026-04-15T22:13:05Z</time>
      </trkpt>
      <trkpt lat="52.148730000481009" lon="8.268670029938221">
        <ele>134</ele>
        <time>2026-04-15T22:13:11Z</time>
      </trkpt>
      <trkpt lat="52.148520033806562" lon="8.269490031525493">
        <ele>141</ele>
        <time>2026-04-15T22:13:26Z</time>
      </trkpt>
      <trkpt lat="52.148369997739792" lon="8.270199978724122">
        <ele>141</ele>
        <time>2026-04-15T22:13:38Z</time>
      </trkpt>
      <trkpt lat="52.148360023275018" lon="8.27058001421392">
        <ele>149</ele>
        <time>2026-04-15T22:13:45Z</time>
      </trkpt>
      <trkpt lat="52.148449961096048" lon="8.271660022437573">
        <ele>149</ele>
        <time>2026-04-15T22:14:02Z</time>
      </trkpt>
      <trkpt lat="52.148500001057982" lon="8.272190010175109">
        <ele>159</ele>
        <time>2026-04-15T22:14:11Z</time>
      </trkpt>
      <trkpt lat="52.148539982736111" lon="8.27272997237742">
        <ele>159</ele>
        <time>2026-04-15T22:14:20Z</time>
      </trkpt>
      <trkpt lat="52.148590022698045" lon="8.273249985650182">
        <ele>159</ele>
        <time>2026-04-15T22:14:29Z</time>
      </trkpt>
      <trkpt lat="52.148490026593208" lon="8.273409996181727">
        <ele>159</ele>
        <time>2026-04-15T22:14:34Z</time>
      </trkpt>
      <trkpt lat="52.148270001634955" lon="8.273409996181727">
        <ele>181</ele>
        <time>2026-04-15T22:14:40Z</time>
      </trkpt>
      <trkpt lat="52.148070009425282" lon="8.273440003395081">
        <ele>181</ele>
        <time>2026-04-15T22:14:45Z</time>
      </trkpt>
      <trkpt lat="52.147840010002255" lon="8.273479985073209">
        <ele>181</ele>
        <time>2026-04-15T22:14:52Z</time>
      </trkpt>
      <trkpt lat="52.147629959508777" lon="8.273530025035143">
        <ele>181</ele>
        <time>2026-04-15T22:14:57Z</time>
      </trkpt>
      <trkpt lat="52.14741999283433" lon="8.273549973964691">
        <ele>181</ele>
        <time>2026-04-15T22:15:03Z</time>
      </trkpt>
      <trkpt lat="52.147199967876077" lon="8.273539999499917">
        <ele>171</ele>
        <time>2026-04-15T22:15:09Z</time>
      </trkpt>
      <trkpt lat="52.14699000120163" lon="8.273479985073209">
        <ele>171</ele>
        <time>2026-04-15T22:15:15Z</time>
      </trkpt>
      <trkpt lat="52.146620023995638" lon="8.27328996732831">
        <ele>171</ele>
        <time>2026-04-15T22:15:25Z</time>
      </trkpt>
      <trkpt lat="52.146009989082813" lon="8.272529980167747">
        <ele>162</ele>
        <time>2026-04-15T22:15:45Z</time>
      </trkpt>
      <trkpt lat="52.145240027457476" lon="8.271390041336417">
        <ele>167</ele>
        <time>2026-04-15T22:16:13Z</time>
      </trkpt>
      <trkpt lat="52.145059984177351" lon="8.271219972521067">
        <ele>167</ele>
        <time>2026-04-15T22:16:19Z</time>
      </trkpt>
      <trkpt lat="52.144859991967678" lon="8.271089969202876">
        <ele>167</ele>
        <time>2026-04-15T22:16:25Z</time>
      </trkpt>
      <trkpt lat="52.144669974222779" lon="8.27098997309804">
        <ele>177</ele>
        <time>2026-04-15T22:16:30Z</time>
      </trkpt>
      <trkpt lat="52.144409967586398" lon="8.270900035277009">
        <ele>177</ele>
        <time>2026-04-15T22:16:37Z</time>
      </trkpt>
      <trkpt lat="52.14393999427557" lon="8.270740024745464">
        <ele>177</ele>
        <time>2026-04-15T22:16:50Z</time>
      </trkpt>
      <trkpt lat="52.143749976530671" lon="8.270680010318756">
        <ele>177</ele>
        <time>2026-04-15T22:16:55Z</time>
      </trkpt>
      <trkpt lat="52.143370024859905" lon="8.270550007000566">
        <ele>175</ele>
        <time>2026-04-15T22:17:05Z</time>
      </trkpt>
      <trkpt lat="52.143050003796816" lon="8.270429978147149">
        <ele>175</ele>
        <time>2026-04-15T22:17:14Z</time>
      </trkpt>
      <trkpt lat="52.142750015482306" lon="8.270210037007928">
        <ele>175</ele>
        <time>2026-04-15T22:17:23Z</time>
      </trkpt>
      <trkpt lat="52.142269983887672" lon="8.26985003426671">
        <ele>168</ele>
        <time>2026-04-15T22:17:37Z</time>
      </trkpt>
      <trkpt lat="52.141540003940463" lon="8.269309988245368">
        <ele>171</ele>
        <time>2026-04-15T22:17:58Z</time>
      </trkpt>
      <trkpt lat="52.141070030629635" lon="8.268989967182279">
        <ele>171</ele>
        <time>2026-04-15T22:18:12Z</time>
      </trkpt>
      <trkpt lat="52.140659987926483" lon="8.268729960545898">
        <ele>168</ele>
        <time>2026-04-15T22:18:24Z</time>
      </trkpt>
      <trkpt lat="52.140169981867075" lon="8.268440030515194">
        <ele>168</ele>
        <time>2026-04-15T22:18:38Z</time>
      </trkpt>
      <trkpt lat="52.139309998601675" lon="8.267920017242432">
        <ele>167</ele>
        <time>2026-04-15T22:19:02Z</time>
      </trkpt>
      <trkpt lat="52.138229990378022" lon="8.267369996756315">
        <ele>170</ele>
        <time>2026-04-15T22:19:33Z</time>
      </trkpt>
      <trkpt lat="52.13786001317203" lon="8.267219960689545">
        <ele>170</ele>
        <time>2026-04-15T22:19:43Z</time>
      </trkpt>
      <trkpt lat="52.138090012595057" lon="8.268529968336225">
        <ele>178</ele>
        <time>2026-04-15T22:20:10Z</time>
      </trkpt>
      <trkpt lat="52.138559985905886" lon="8.27012998983264">
        <ele>177</ele>
        <time>2026-04-15T22:20:39Z</time>
      </trkpt>
      <trkpt lat="52.139609986916184" lon="8.273679977282882">
        <ele>185</ele>
        <time>2026-04-15T22:21:43Z</time>
      </trkpt>
      <trkpt lat="52.139760022982955" lon="8.27419001609087">
        <ele>185</ele>
        <time>2026-04-15T22:21:53Z</time>
      </trkpt>
      <trkpt lat="52.13990000076592" lon="8.274659989401698">
        <ele>182</ele>
        <time>2026-04-15T22:22:01Z</time>
      </trkpt>
      <trkpt lat="52.14005003683269" lon="8.27515996992588">
        <ele>182</ele>
        <time>2026-04-15T22:22:10Z</time>
      </trkpt>
      <trkpt lat="52.140150032937527" lon="8.27550002373755">
        <ele>182</ele>
        <time>2026-04-15T22:22:16Z</time>
      </trkpt>
      <trkpt lat="52.140399981290102" lon="8.27633997425437">
        <ele>170</ele>
        <time>2026-04-15T22:22:32Z</time>
      </trkpt>
      <trkpt lat="52.140499977394938" lon="8.276680028066039">
        <ele>170</ele>
        <time>2026-04-15T22:22:38Z</time>
      </trkpt>
      <trkpt lat="52.140710027888417" lon="8.277400033548474">
        <ele>170</ele>
        <time>2026-04-15T22:22:51Z</time>
      </trkpt>
      <trkpt lat="52.140919994562864" lon="8.278090031817555">
        <ele>158</ele>
        <time>2026-04-15T22:23:04Z</time>
      </trkpt>
      <trkpt lat="52.140989983454347" lon="8.278390020132065">
        <ele>158</ele>
        <time>2026-04-15T22:23:09Z</time>
      </trkpt>
      <trkpt lat="52.141019990667701" lon="8.278769971802831">
        <ele>158</ele>
        <time>2026-04-15T22:23:15Z</time>
      </trkpt>
      <trkpt lat="52.14091002009809" lon="8.279270036146045">
        <ele>158</ele>
        <time>2026-04-15T22:23:24Z</time>
      </trkpt>
      <trkpt lat="52.14088998734951" lon="8.279670020565391">
        <ele>148</ele>
        <time>2026-04-15T22:23:31Z</time>
      </trkpt>
      <trkpt lat="52.141059972345829" lon="8.281849985942245">
        <ele>144</ele>
        <time>2026-04-15T22:24:07Z</time>
      </trkpt>
      <trkpt lat="52.141140019521117" lon="8.282790016382933">
        <ele>142</ele>
        <time>2026-04-15T22:24:22Z</time>
      </trkpt>
      <trkpt lat="52.141180001199245" lon="8.283090004697442">
        <ele>142</ele>
        <time>2026-04-15T22:24:27Z</time>
      </trkpt>
      <trkpt lat="52.141289971768856" lon="8.283499963581562">
        <ele>142</ele>
        <time>2026-04-15T22:24:35Z</time>
      </trkpt>
      <trkpt lat="52.141489963978529" lon="8.284149980172515">
        <ele>142</ele>
        <time>2026-04-15T22:24:47Z</time>
      </trkpt>
      <trkpt lat="52.141679981723428" lon="8.284769989550114">
        <ele>138</ele>
        <time>2026-04-15T22:24:58Z</time>
      </trkpt>
      <trkpt lat="52.141809985041618" lon="8.28521003946662">
        <ele>138</ele>
        <time>2026-04-15T22:25:06Z</time>
      </trkpt>
      <trkpt lat="52.142039984464645" lon="8.285980001091957">
        <ele>133</ele>
        <time>2026-04-15T22:25:20Z</time>
      </trkpt>
      <trkpt lat="52.142130006104708" lon="8.286260040476918">
        <ele>133</ele>
        <time>2026-04-15T22:25:25Z</time>
      </trkpt>
      <trkpt lat="52.142460001632571" lon="8.287369972094894">
        <ele>130</ele>
        <time>2026-04-15T22:25:45Z</time>
      </trkpt>
      <trkpt lat="52.142750015482306" lon="8.288310002535582">
        <ele>130</ele>
        <time>2026-04-15T22:26:03Z</time>
      </trkpt>
      <trkpt lat="52.142799971625209" lon="8.288609990850091">
        <ele>130</ele>
        <time>2026-04-15T22:26:08Z</time>
      </trkpt>
      <trkpt lat="52.142820004373789" lon="8.288920037448406">
        <ele>130</ele>
        <time>2026-04-15T22:26:13Z</time>
      </trkpt>
      <trkpt lat="52.142880018800497" lon="8.289260007441044">
        <ele>130</ele>
        <time>2026-04-15T22:26:19Z</time>
      </trkpt>
      <trkpt lat="52.142970040440559" lon="8.289520014077425">
        <ele>130</ele>
        <time>2026-04-15T22:26:24Z</time>
      </trkpt>
      <trkpt lat="52.143119992688298" lon="8.289959980174899">
        <ele>130</ele>
        <time>2026-04-15T22:26:32Z</time>
      </trkpt>
      <trkpt lat="52.143289977684617" lon="8.290410004556179">
        <ele>130</ele>
        <time>2026-04-15T22:26:41Z</time>
      </trkpt>
      <trkpt lat="52.143519977107644" lon="8.290870003402233">
        <ele>129</ele>
        <time>2026-04-15T22:26:50Z</time>
      </trkpt>
      <trkpt lat="52.143679987639189" lon="8.291149958968163">
        <ele>129</ele>
        <time>2026-04-15T22:26:57Z</time>
      </trkpt>
      <trkpt lat="52.144599985331297" lon="8.292700024321675">
        <ele>130</ele>
        <time>2026-04-15T22:27:32Z</time>
      </trkpt>
      <trkpt lat="52.144780028611422" lon="8.293030019849539">
        <ele>131</ele>
        <time>2026-04-15T22:27:39Z</time>
      </trkpt>
      <trkpt lat="52.145140031352639" lon="8.293829988688231">
        <ele>131</ele>
        <time>2026-04-15T22:27:56Z</time>
      </trkpt>
      <trkpt lat="52.145559964701533" lon="8.294800026342273">
        <ele>132</ele>
        <time>2026-04-15T22:28:15Z</time>
      </trkpt>
      <trkpt lat="52.14567999355495" lon="8.295100014656782">
        <ele>132</ele>
        <time>2026-04-15T22:28:21Z</time>
      </trkpt>
      <trkpt lat="52.145740007981658" lon="8.295409977436066">
        <ele>132</ele>
        <time>2026-04-15T22:28:26Z</time>
      </trkpt>
      <trkpt lat="52.145970007404685" lon="8.297070013359189">
        <ele>130</ele>
        <time>2026-04-15T22:28:54Z</time>
      </trkpt>
      <trkpt lat="52.146030021831393" lon="8.297669989988208">
        <ele>130</ele>
        <time>2026-04-15T22:29:04Z</time>
      </trkpt>
      <trkpt lat="52.146060029044747" lon="8.29816997051239">
        <ele>129</ele>
        <time>2026-04-15T22:29:12Z</time>
      </trkpt>
      <trkpt lat="52.146079977974296" lon="8.300410034134984">
        <ele>127</ele>
        <time>2026-04-15T22:29:49Z</time>
      </trkpt>
      <trkpt lat="52.14610998518765" lon="8.301000036299229">
        <ele>127</ele>
        <time>2026-04-15T22:29:59Z</time>
      </trkpt>
      <trkpt lat="52.146230014041066" lon="8.301760023459792">
        <ele>126</ele>
        <time>2026-04-15T22:30:12Z</time>
      </trkpt>
      <trkpt lat="52.146469987928867" lon="8.302999958395958">
        <ele>125</ele>
        <time>2026-04-15T22:30:33Z</time>
      </trkpt>
      <trkpt lat="52.146660005673766" lon="8.303809985518456">
        <ele>125</ele>
        <time>2026-04-15T22:30:47Z</time>
      </trkpt>
      <trkpt lat="52.147310022264719" lon="8.306269990280271">
        <ele>122</ele>
        <time>2026-04-15T22:31:31Z</time>
      </trkpt>
      <trkpt lat="52.147689973935485" lon="8.307710001245141">
        <ele>121</ele>
        <time>2026-04-15T22:31:57Z</time>
      </trkpt>
      <trkpt lat="52.147879991680384" lon="8.30843998119235">
        <ele>121</ele>
        <time>2026-04-15T22:32:10Z</time>
      </trkpt>
      <trkpt lat="52.147989962249994" lon="8.308959994465113">
        <ele>121</ele>
        <time>2026-04-15T22:32:19Z</time>
      </trkpt>
      <trkpt lat="52.148569989949465" lon="8.309730039909482">
        <ele>120</ele>
        <time>2026-04-15T22:32:39Z</time>
      </trkpt>
      <trkpt lat="52.149359984323382" lon="8.310639979317784">
        <ele>119</ele>
        <time>2026-04-15T22:33:05Z</time>
      </trkpt>
      <trkpt lat="52.149559976533055" lon="8.310939967632294">
        <ele>119</ele>
        <time>2026-04-15T22:33:12Z</time>
      </trkpt>
      <trkpt lat="52.149800034239888" lon="8.311369959264994">
        <ele>121</ele>
        <time>2026-04-15T22:33:22Z</time>
      </trkpt>
      <trkpt lat="52.150040008127689" lon="8.311829958111048">
        <ele>121</ele>
        <time>2026-04-15T22:33:32Z</time>
      </trkpt>
      <trkpt lat="52.150179985910654" lon="8.312019975855947">
        <ele>121</ele>
        <time>2026-04-15T22:33:36Z</time>
      </trkpt>
      <trkpt lat="52.150379978120327" lon="8.312230026349425">
        <ele>121</ele>
        <time>2026-04-15T22:33:43Z</time>
      </trkpt>
      <trkpt lat="52.150609977543354" lon="8.31239003688097">
        <ele>122</ele>
        <time>2026-04-15T22:33:50Z</time>
      </trkpt>
      <trkpt lat="52.151099983602762" lon="8.312539989128709">
        <ele>122</ele>
        <time>2026-04-15T22:34:03Z</time>
      </trkpt>
      <trkpt lat="52.152089970186353" lon="8.312160037457943">
        <ele>119</ele>
        <time>2026-04-15T22:34:30Z</time>
      </trkpt>
      <trkpt lat="52.152279987931252" lon="8.31221996806562">
        <ele>119</ele>
        <time>2026-04-15T22:34:35Z</time>
      </trkpt>
      <trkpt lat="52.15244997292757" lon="8.312470000237227">
        <ele>119</ele>
        <time>2026-04-15T22:34:41Z</time>
      </trkpt>
      <trkpt lat="52.152909971773624" lon="8.313210038468242">
        <ele>116</ele>
        <time>2026-04-15T22:34:59Z</time>
      </trkpt>
      <trkpt lat="52.153369970619678" lon="8.313949992880225">
        <ele>115</ele>
        <time>2026-04-15T22:35:16Z</time>
      </trkpt>
      <trkpt lat="52.154400022700429" lon="8.315269974991679">
        <ele>113</ele>
        <time>2026-04-15T22:35:51Z</time>
      </trkpt>
      <trkpt lat="52.154560033231974" lon="8.315520007163286">
        <ele>113</ele>
        <time>2026-04-15T22:35:57Z</time>
      </trkpt>
      <trkpt lat="52.154999999329448" lon="8.316349983215332">
        <ele>109</ele>
        <time>2026-04-15T22:36:15Z</time>
      </trkpt>
      <trkpt lat="52.155260005965829" lon="8.316830014809966">
        <ele>109</ele>
        <time>2026-04-15T22:36:25Z</time>
      </trkpt>
      <trkpt lat="52.155469972640276" lon="8.317280039191246">
        <ele>109</ele>
        <time>2026-04-15T22:36:35Z</time>
      </trkpt>
      <trkpt lat="52.155680023133755" lon="8.31804002635181">
        <ele>109</ele>
        <time>2026-04-15T22:36:48Z</time>
      </trkpt>
      <trkpt lat="52.155820000916719" lon="8.31804002635181">
        <ele>109</ele>
        <time>2026-04-15T22:36:54Z</time>
      </trkpt>
      <trkpt lat="52.155980011448264" lon="8.317780019715428">
        <ele>109</ele>
        <time>2026-04-15T22:37:00Z</time>
      </trkpt>
      <trkpt lat="52.156589962542057" lon="8.317550020292401">
        <ele>108</ele>
        <time>2026-04-15T22:37:17Z</time>
      </trkpt>
      <trkpt lat="52.156800013035536" lon="8.317459998652339">
        <ele>108</ele>
        <time>2026-04-15T22:37:22Z</time>
      </trkpt>
      <trkpt lat="52.157000005245209" lon="8.317329995334148">
        <ele>108</ele>
        <time>2026-04-15T22:37:28Z</time>
      </trkpt>
      <trkpt lat="52.15723997913301" lon="8.317150035873056">
        <ele>105</ele>
        <time>2026-04-15T22:37:35Z</time>
      </trkpt>
      <trkpt lat="52.157360007986426" lon="8.316879970952869">
        <ele>105</ele>
        <time>2026-04-15T22:37:41Z</time>
      </trkpt>
      <trkpt lat="52.157380040735006" lon="8.316570008173585">
        <ele>105</ele>
        <time>2026-04-15T22:37:46Z</time>
      </trkpt>
      <trkpt lat="52.157399989664555" lon="8.316070027649403">
        <ele>105</ele>
        <time>2026-04-15T22:37:54Z</time>
      </trkpt>
      <trkpt lat="52.157399989664555" lon="8.315750006586313">
        <ele>105</ele>
        <time>2026-04-15T22:38:00Z</time>
      </trkpt>
      <trkpt lat="52.157339975237846" lon="8.313559982925654">
        <ele>95</ele>
        <time>2026-04-15T22:38:35Z</time>
      </trkpt>
      <trkpt lat="52.157380040735006" lon="8.313180031254888">
        <ele>95</ele>
        <time>2026-04-15T22:38:42Z</time>
      </trkpt>
      <trkpt lat="52.157650021836162" lon="8.310709968209267">
        <ele>93</ele>
        <time>2026-04-15T22:39:23Z</time>
      </trkpt>
      <trkpt lat="52.15784003958106" lon="8.310430012643337">
        <ele>93</ele>
        <time>2026-04-15T22:39:30Z</time>
      </trkpt>
      <trkpt lat="52.158430041745305" lon="8.310270002111793">
        <ele>96</ele>
        <time>2026-04-15T22:39:46Z</time>
      </trkpt>
      <trkpt lat="52.158740004524589" lon="8.310190038755536">
        <ele>96</ele>
        <time>2026-04-15T22:39:55Z</time>
      </trkpt>
      <trkpt lat="52.158319987356663" lon="8.308899980038405">
        <ele>99</ele>
        <time>2026-04-15T22:40:18Z</time>
      </trkpt>
      <trkpt lat="52.158180009573698" lon="8.308430006727576">
        <ele>99</ele>
        <time>2026-04-15T22:40:27Z</time>
      </trkpt>
      <trkpt lat="52.158089987933636" lon="8.307849979028106">
        <ele>99</ele>
        <time>2026-04-15T22:40:37Z</time>
      </trkpt>
      <trkpt lat="52.158070039004087" lon="8.307459969073534">
        <ele>108</ele>
        <time>2026-04-15T22:40:43Z</time>
      </trkpt>
      <trkpt lat="52.157920002937317" lon="8.304299991577864">
        <ele>112</ele>
        <time>2026-04-15T22:41:35Z</time>
      </trkpt>
      <trkpt lat="52.157850014045835" lon="8.302499977871776">
        <ele>114</ele>
        <time>2026-04-15T22:42:05Z</time>
      </trkpt>
      <trkpt lat="52.157780025154352" lon="8.300970029085875">
        <ele>114</ele>
        <time>2026-04-15T22:42:30Z</time>
      </trkpt>
      <trkpt lat="52.157659996300936" lon="8.298529973253608">
        <ele>116</ele>
        <time>2026-04-15T22:43:10Z</time>
      </trkpt>
      <trkpt lat="52.157629989087582" lon="8.298110039904714">
        <ele>116</ele>
        <time>2026-04-15T22:43:17Z</time>
      </trkpt>
      <trkpt lat="52.157580032944679" lon="8.297669989988208">
        <ele>116</ele>
        <time>2026-04-15T22:43:24Z</time>
      </trkpt>
      <trkpt lat="52.157490011304617" lon="8.29685996286571">
        <ele>117</ele>
        <time>2026-04-15T22:43:38Z</time>
      </trkpt>
      <trkpt lat="52.157439971342683" lon="8.29645000398159">
        <ele>117</ele>
        <time>2026-04-15T22:43:45Z</time>
      </trkpt>
      <trkpt lat="52.15739001519978" lon="8.29599997960031">
        <ele>117</ele>
        <time>2026-04-15T22:43:52Z</time>
      </trkpt>
      <trkpt lat="52.157350033521652" lon="8.295679958537221">
        <ele>117</ele>
        <time>2026-04-15T22:43:57Z</time>
      </trkpt>
      <trkpt lat="52.157299993559718" lon="8.295130021870136">
        <ele>119</ele>
        <time>2026-04-15T22:44:07Z</time>
      </trkpt>
      <trkpt lat="52.157269986346364" lon="8.294500038027763">
        <ele>119</ele>
        <time>2026-04-15T22:44:17Z</time>
      </trkpt>
      <trkpt lat="52.157220030203462" lon="8.293399997055531">
        <ele>122</ele>
        <time>2026-04-15T22:44:35Z</time>
      </trkpt>
      <trkpt lat="52.157199997454882" lon="8.29268996603787">
        <ele>122</ele>
        <time>2026-04-15T22:44:47Z</time>
      </trkpt>
      <trkpt lat="52.157179964706302" lon="8.292319988831878">
        <ele>122</ele>
        <time>2026-04-15T22:44:53Z</time>
      </trkpt>
      <trkpt lat="52.157139983028173" lon="8.291690004989505">
        <ele>124</ele>
        <time>2026-04-15T22:45:03Z</time>
      </trkpt>
      <trkpt lat="52.157079968601465" lon="8.291239980608225">
        <ele>124</ele>
        <time>2026-04-15T22:45:11Z</time>
      </trkpt>
      <trkpt lat="52.156969998031855" lon="8.290819963440299">
        <ele>124</ele>
        <time>2026-04-15T22:45:18Z</time>
      </trkpt>
      <trkpt lat="52.156779980286956" lon="8.290200037881732">
        <ele>126</ele>
        <time>2026-04-15T22:45:30Z</time>
      </trkpt>
      <trkpt lat="52.156640002503991" lon="8.289780020713806">
        <ele>126</ele>
        <time>2026-04-15T22:45:37Z</time>
      </trkpt>
      <trkpt lat="52.156509999185801" lon="8.28936000354588">
        <ele>126</ele>
        <time>2026-04-15T22:45:45Z</time>
      </trkpt>
      <trkpt lat="52.156389970332384" lon="8.288900004699826">
        <ele>129</ele>
        <time>2026-04-15T22:45:53Z</time>
      </trkpt>
      <trkpt lat="52.156340014189482" lon="8.288570009171963">
        <ele>129</ele>
        <time>2026-04-15T22:45:59Z</time>
      </trkpt>
      <trkpt lat="52.156319981440902" lon="8.288159966468811">
        <ele>129</ele>
        <time>2026-04-15T22:46:06Z</time>
      </trkpt>
      <trkpt lat="52.156319981440902" lon="8.287859978154302">
        <ele>129</ele>
        <time>2026-04-15T22:46:11Z</time>
      </trkpt>
      <trkpt lat="52.156349988654256" lon="8.287260001525283">
        <ele>131</ele>
        <time>2026-04-15T22:46:20Z</time>
      </trkpt>
      <trkpt lat="52.156389970332384" lon="8.286449974402785">
        <ele>131</ele>
        <time>2026-04-15T22:46:34Z</time>
      </trkpt>
      <trkpt lat="52.156419977545738" lon="8.285719994455576">
        <ele>131</ele>
        <time>2026-04-15T22:46:46Z</time>
      </trkpt>
      <trkpt lat="52.156479991972446" lon="8.284639986231923">
        <ele>132</ele>
        <time>2026-04-15T22:47:04Z</time>
      </trkpt>
      <trkpt lat="52.156530031934381" lon="8.284040009602904">
        <ele>132</ele>
        <time>2026-04-15T22:47:14Z</time>
      </trkpt>
      <trkpt lat="52.156719965860248" lon="8.282890012487769">
        <ele>134</ele>
        <time>2026-04-15T22:47:33Z</time>
      </trkpt>
      <trkpt lat="52.156790038570762" lon="8.282460020855069">
        <ele>134</ele>
        <time>2026-04-15T22:47:40Z</time>
      </trkpt>
      <trkpt lat="52.156849969178438" lon="8.28213999979198">
        <ele>135</ele>
        <time>2026-04-15T22:47:46Z</time>
      </trkpt>
      <trkpt lat="52.156969998031855" lon="8.281380012631416">
        <ele>135</ele>
        <time>2026-04-15T22:47:59Z</time>
      </trkpt>
      <trkpt lat="52.157030012458563" lon="8.281010035425425">
        <ele>135</ele>
        <time>2026-04-15T22:48:05Z</time>
      </trkpt>
      <trkpt lat="52.157079968601465" lon="8.280680039897561">
        <ele>135</ele>
        <time>2026-04-15T22:48:11Z</time>
      </trkpt>
      <trkpt lat="52.157160015776753" lon="8.280149968340993">
        <ele>132</ele>
        <time>2026-04-15T22:48:19Z</time>
      </trkpt>
      <trkpt lat="52.157199997454882" lon="8.279789965599775">
        <ele>132</ele>
        <time>2026-04-15T22:48:25Z</time>
      </trkpt>
      <trkpt lat="52.157269986346364" lon="8.279250003397465">
        <ele>132</ele>
        <time>2026-04-15T22:48:35Z</time>
      </trkpt>
      <trkpt lat="52.157339975237846" lon="8.27866000123322">
        <ele>130</ele>
        <time>2026-04-15T22:48:44Z</time>
      </trkpt>
      <trkpt lat="52.157460004091263" lon="8.27767001464963">
        <ele>130</ele>
        <time>2026-04-15T22:49:01Z</time>
      </trkpt>
      <trkpt lat="52.157499985769391" lon="8.277340019121766">
        <ele>130</ele>
        <time>2026-04-15T22:49:06Z</time>
      </trkpt>
      <trkpt lat="52.157539967447519" lon="8.277050005272031">
        <ele>125</ele>
        <time>2026-04-15T22:49:11Z</time>
      </trkpt>
      <trkpt lat="52.157599981874228" lon="8.276669969782233">
        <ele>125</ele>
        <time>2026-04-15T22:49:18Z</time>
      </trkpt>
      <trkpt lat="52.157659996300936" lon="8.276150040328503">
        <ele>125</ele>
        <time>2026-04-15T22:49:26Z</time>
      </trkpt>
      <trkpt lat="52.157750017940998" lon="8.275410002097487">
        <ele>125</ele>
        <time>2026-04-15T22:49:39Z</time>
      </trkpt>
      <trkpt lat="52.15784003958106" lon="8.274659989401698">
        <ele>124</ele>
        <time>2026-04-15T22:49:51Z</time>
      </trkpt>
      <trkpt lat="52.157869962975383" lon="8.274280037730932">
        <ele>124</ele>
        <time>2026-04-15T22:49:58Z</time>
      </trkpt>
      <trkpt lat="52.15782000683248" lon="8.273300025612116">
        <ele>124</ele>
        <time>2026-04-15T22:50:14Z</time>
      </trkpt>
      <trkpt lat="52.157659996300936" lon="8.271079994738102">
        <ele>123</ele>
        <time>2026-04-15T22:50:50Z</time>
      </trkpt>
      <trkpt lat="52.157629989087582" lon="8.270770031958818">
        <ele>123</ele>
        <time>2026-04-15T22:50:55Z</time>
      </trkpt>
      <trkpt lat="52.157620014622808" lon="8.270329982042313">
        <ele>123</ele>
        <time>2026-04-15T22:51:03Z</time>
      </trkpt>
      <trkpt lat="52.157650021836162" lon="8.269929997622967">
        <ele>119</ele>
        <time>2026-04-15T22:51:09Z</time>
      </trkpt>
      <trkpt lat="52.157720010727644" lon="8.26927000656724">
        <ele>119</ele>
        <time>2026-04-15T22:51:20Z</time>
      </trkpt>
      <trkpt lat="52.158219991251826" lon="8.269239999353886">
        <ele>114</ele>
        <time>2026-04-15T22:51:34Z</time>
      </trkpt>
      <trkpt lat="52.158619975671172" lon="8.268930036574602">
        <ele>114</ele>
        <time>2026-04-15T22:51:46Z</time>
      </trkpt>
      <trkpt lat="52.159049967303872" lon="8.268580008298159">
        <ele>114</ele>
        <time>2026-04-15T22:51:59Z</time>
      </trkpt>
      <trkpt lat="52.159220036119223" lon="8.268370041623712">
        <ele>110</ele>
        <time>2026-04-15T22:52:04Z</time>
      </trkpt>
      <trkpt lat="52.159499991685152" lon="8.267880035564303">
        <ele>110</ele>
        <time>2026-04-15T22:52:15Z</time>
      </trkpt>
      <trkpt lat="52.159379962831736" lon="8.267579963430762">
        <ele>110</ele>
        <time>2026-04-15T22:52:21Z</time>
      </trkpt>
      <trkpt lat="52.159420028328896" lon="8.267369996756315">
        <ele>110</ele>
        <time>2026-04-15T22:52:26Z</time>
      </trkpt>
      <trkpt lat="52.159699983894825" lon="8.266960037872195">
        <ele>108</ele>
        <time>2026-04-15T22:52:36Z</time>
      </trkpt>
      <trkpt lat="52.159829987213016" lon="8.266689972952008">
        <ele>108</ele>
        <time>2026-04-15T22:52:42Z</time>
      </trkpt>
      <trkpt lat="52.159999972209334" lon="8.266500039026141">
        <ele>108</ele>
        <time>2026-04-15T22:52:47Z</time>
      </trkpt>
      <trkpt lat="52.160229971632361" lon="8.266050014644861">
        <ele>109</ele>
        <time>2026-04-15T22:52:57Z</time>
      </trkpt>
      <trkpt lat="52.160350000485778" lon="8.265720019116998">
        <ele>109</ele>
        <time>2026-04-15T22:53:03Z</time>
      </trkpt>
      <trkpt lat="52.160470029339194" lon="8.265409972518683">
        <ele>109</ele>
        <time>2026-04-15T22:53:09Z</time>
      </trkpt>
      <trkpt lat="52.160670021548867" lon="8.265560008585453">
        <ele>109</ele>
        <time>2026-04-15T22:53:16Z</time>
      </trkpt>
      <trkpt lat="52.160470029339194" lon="8.265390023589134">
        <ele>109</ele>
        <time>2026-04-15T22:53:22Z</time>
      </trkpt>
      <trkpt lat="52.160659963265061" lon="8.264870010316372">
        <ele>105</ele>
        <time>2026-04-15T22:53:32Z</time>
      </trkpt>
      <trkpt lat="52.160819973796606" lon="8.264689967036247">
        <ele>105</ele>
        <time>2026-04-15T22:53:37Z</time>
      </trkpt>
      <trkpt lat="52.16117000207305" lon="8.264570022001863">
        <ele>105</ele>
        <time>2026-04-15T22:53:46Z</time>
      </trkpt>
      <trkpt lat="52.161369994282722" lon="8.264519982039928">
        <ele>103</ele>
        <time>2026-04-15T22:53:52Z</time>
      </trkpt>
      <trkpt lat="52.161650033667684" lon="8.264449993148446">
        <ele>103</ele>
        <time>2026-04-15T22:53:59Z</time>
      </trkpt>
      <trkpt lat="52.161860000342131" lon="8.264530040323734">
        <ele>103</ele>
        <time>2026-04-15T22:54:05Z</time>
      </trkpt>
      <trkpt lat="52.162169963121414" lon="8.26480002142489">
        <ele>103</ele>
        <time>2026-04-15T22:54:14Z</time>
      </trkpt>
      <trkpt lat="52.162389988079667" lon="8.265079976990819">
        <ele>103</ele>
        <time>2026-04-15T22:54:22Z</time>
      </trkpt>
      <trkpt lat="52.162600038573146" lon="8.265309976413846">
        <ele>103</ele>
        <time>2026-04-15T22:54:29Z</time>
      </trkpt>
      <trkpt lat="52.162800030782819" lon="8.265469986945391">
        <ele>103</ele>
        <time>2026-04-15T22:54:35Z</time>
      </trkpt>
      <trkpt lat="52.163209989666939" lon="8.265780033543706">
        <ele>103</ele>
        <time>2026-04-15T22:54:47Z</time>
      </trkpt>
      <trkpt lat="52.163539985194802" lon="8.266040040180087">
        <ele>103</ele>
        <time>2026-04-15T22:54:57Z</time>
      </trkpt>
      <trkpt lat="52.164310030639172" lon="8.266640016809106">
        <ele>102</ele>
        <time>2026-04-15T22:55:19Z</time>
      </trkpt>
      <trkpt lat="52.164719989523292" lon="8.266960037872195">
        <ele>102</ele>
        <time>2026-04-15T22:55:32Z</time>
      </trkpt>
      <trkpt lat="52.164919981732965" lon="8.267109990119934">
        <ele>102</ele>
        <time>2026-04-15T22:55:37Z</time>
      </trkpt>
      <trkpt lat="52.165240002796054" lon="8.267260026186705">
        <ele>101</ele>
        <time>2026-04-15T22:55:46Z</time>
      </trkpt>
      <trkpt lat="52.165409987792373" lon="8.267349964007735">
        <ele>101</ele>
        <time>2026-04-15T22:55:52Z</time>
      </trkpt>
      <trkpt lat="52.165569998323917" lon="8.267249967902899">
        <ele>101</ele>
        <time>2026-04-15T22:55:57Z</time>
      </trkpt>
      <trkpt lat="52.165739983320236" lon="8.267149971798062">
        <ele>101</ele>
        <time>2026-04-15T22:56:02Z</time>
      </trkpt>
      <trkpt lat="52.166399974375963" lon="8.266589976847172">
        <ele>99</ele>
        <time>2026-04-15T22:56:22Z</time>
      </trkpt>
      <trkpt lat="52.166900038719177" lon="8.266140036284924">
        <ele>99</ele>
        <time>2026-04-15T22:56:37Z</time>
      </trkpt>
      <trkpt lat="52.167389960959554" lon="8.265699986368418">
        <ele>98</ele>
        <time>2026-04-15T22:56:52Z</time>
      </trkpt>
      <trkpt lat="52.167760021984577" lon="8.265399998053908">
        <ele>98</ele>
        <time>2026-04-15T22:57:03Z</time>
      </trkpt>
      <trkpt lat="52.168109966441989" lon="8.265119958668947">
        <ele>100</ele>
        <time>2026-04-15T22:57:14Z</time>
      </trkpt>
      <trkpt lat="52.168299984186888" lon="8.265000013634563">
        <ele>100</ele>
        <time>2026-04-15T22:57:19Z</time>
      </trkpt>
      <trkpt lat="52.169379992410541" lon="8.264429960399866">
        <ele>93</ele>
        <time>2026-04-15T22:57:50Z</time>
      </trkpt>
      <trkpt lat="52.169630024582148" lon="8.264310015365481">
        <ele>93</ele>
        <time>2026-04-15T22:57:57Z</time>
      </trkpt>
      <trkpt lat="52.169819958508015" lon="8.264229968190193">
        <ele>93</ele>
        <time>2026-04-15T22:58:02Z</time>
      </trkpt>
      <trkpt lat="52.170850010588765" lon="8.263810034841299">
        <ele>93</ele>
        <time>2026-04-15T22:58:30Z</time>
      </trkpt>
      <trkpt lat="52.1711400244385" lon="8.263659998774529">
        <ele>94</ele>
        <time>2026-04-15T22:58:38Z</time>
      </trkpt>
      <trkpt lat="52.171709993854165" lon="8.263299996033311">
        <ele>94</ele>
        <time>2026-04-15T22:58:55Z</time>
      </trkpt>
      <trkpt lat="52.172379959374666" lon="8.262830022722483">
        <ele>96</ele>
        <time>2026-04-15T22:59:14Z</time>
      </trkpt>
      <trkpt lat="52.172580035403371" lon="8.262679986655712">
        <ele>96</ele>
        <time>2026-04-15T22:59:20Z</time>
      </trkpt>
      <trkpt lat="52.173059983178973" lon="8.26231000944972">
        <ele>97</ele>
        <time>2026-04-15T22:59:34Z</time>
      </trkpt>
      <trkpt lat="52.173300040885806" lon="8.262129966169596">
        <ele>97</ele>
        <time>2026-04-15T22:59:41Z</time>
      </trkpt>
      <trkpt lat="52.173530040308833" lon="8.262010021135211">
        <ele>97</ele>
        <time>2026-04-15T22:59:48Z</time>
      </trkpt>
      <trkpt lat="52.1737199742347" lon="8.261989988386631">
        <ele>97</ele>
        <time>2026-04-15T22:59:53Z</time>
      </trkpt>
      <trkpt lat="52.173960031941533" lon="8.262070035561919">
        <ele>104</ele>
        <time>2026-04-15T22:59:59Z</time>
      </trkpt>
      <trkpt lat="52.1741499658674" lon="8.262210013344884">
        <ele>104</ele>
        <time>2026-04-15T23:00:05Z</time>
      </trkpt>
      <trkpt lat="52.174720019102097" lon="8.262670012190938">
        <ele>104</ele>
        <time>2026-04-15T23:00:22Z</time>
      </trkpt>
      <trkpt lat="52.174920011311769" lon="8.262839997187257">
        <ele>107</ele>
        <time>2026-04-15T23:00:28Z</time>
      </trkpt>
      <trkpt lat="52.175280014052987" lon="8.263130011036992">
        <ele>107</ele>
        <time>2026-04-15T23:00:39Z</time>
      </trkpt>
      <trkpt lat="52.175449999049306" lon="8.263260014355183">
        <ele>107</ele>
        <time>2026-04-15T23:00:44Z</time>
      </trkpt>
      <trkpt lat="52.175670024007559" lon="8.263439973816276">
        <ele>107</ele>
        <time>2026-04-15T23:00:50Z</time>
      </trkpt>
      <trkpt lat="52.175900023430586" lon="8.2636200170964">
        <ele>113</ele>
        <time>2026-04-15T23:00:57Z</time>
      </trkpt>
      <trkpt lat="52.176139997318387" lon="8.263829983770847">
        <ele>113</ele>
        <time>2026-04-15T23:01:04Z</time>
      </trkpt>
      <trkpt lat="52.176369996741414" lon="8.2640500087291">
        <ele>113</ele>
        <time>2026-04-15T23:01:11Z</time>
      </trkpt>
      <trkpt lat="52.176509974524379" lon="8.264089990407229">
        <ele>113</ele>
        <time>2026-04-15T23:01:17Z</time>
      </trkpt>
      <trkpt lat="52.176530007272959" lon="8.262860029935837">
        <ele>111</ele>
        <time>2026-04-15T23:01:37Z</time>
      </trkpt>
      <trkpt lat="52.176909958943725" lon="8.262939993292093">
        <ele>111</ele>
        <time>2026-04-15T23:01:47Z</time>
      </trkpt>
      <trkpt lat="52.17732997611165" lon="8.263120036572218">
        <ele>104</ele>
        <time>2026-04-15T23:01:59Z</time>
      </trkpt>
      <trkpt lat="52.178609976544976" lon="8.263669973239303">
        <ele>99</ele>
        <time>2026-04-15T23:02:34Z</time>
      </trkpt>
      <trkpt lat="52.179229985922575" lon="8.26394003815949">
        <ele>99</ele>
        <time>2026-04-15T23:02:51Z</time>
      </trkpt>
      <trkpt lat="52.179940016940236" lon="8.264089990407229">
        <ele>98</ele>
        <time>2026-04-15T23:03:11Z</time>
      </trkpt>
      <trkpt lat="52.180549968034029" lon="8.264059983193874">
        <ele>98</ele>
        <time>2026-04-15T23:03:27Z</time>
      </trkpt>
      <trkpt lat="52.180899996310472" lon="8.263929979875684">
        <ele>99</ele>
        <time>2026-04-15T23:03:36Z</time>
      </trkpt>
      <trkpt lat="52.18110996298492" lon="8.263680031523109">
        <ele>99</ele>
        <time>2026-04-15T23:03:43Z</time>
      </trkpt>
      <trkpt lat="52.181520005688071" lon="8.263079971075058">
        <ele>98</ele>
        <time>2026-04-15T23:03:58Z</time>
      </trkpt>
      <trkpt lat="52.181719997897744" lon="8.262809989973903">
        <ele>98</ele>
        <time>2026-04-15T23:04:05Z</time>
      </trkpt>
      <trkpt lat="52.182500017806888" lon="8.262189980596304">
        <ele>100</ele>
        <time>2026-04-15T23:04:28Z</time>
      </trkpt>
      <trkpt lat="52.183239972218871" lon="8.261669967323542">
        <ele>100</ele>
        <time>2026-04-15T23:04:50Z</time>
      </trkpt>
      <trkpt lat="52.183710029348731" lon="8.261290015652776">
        <ele>95</ele>
        <time>2026-04-15T23:05:04Z</time>
      </trkpt>
      <trkpt lat="52.183929970487952" lon="8.261020034551621">
        <ele>95</ele>
        <time>2026-04-15T23:05:11Z</time>
      </trkpt>
      <trkpt lat="52.184270024299622" lon="8.260800009593368">
        <ele>89</ele>
        <time>2026-04-15T23:05:21Z</time>
      </trkpt>
      <trkpt lat="52.185069993138313" lon="8.260800009593368">
        <ele>89</ele>
        <time>2026-04-15T23:05:42Z</time>
      </trkpt>
      <trkpt lat="52.185350032523274" lon="8.26086999848485">
        <ele>87</ele>
        <time>2026-04-15T23:05:50Z</time>
      </trkpt>
      <trkpt lat="52.18575001694262" lon="8.261090023443103">
        <ele>87</ele>
        <time>2026-04-15T23:06:01Z</time>
      </trkpt>
      <trkpt lat="52.186259971931577" lon="8.261399986222386">
        <ele>87</ele>
        <time>2026-04-15T23:06:16Z</time>
      </trkpt>
      <trkpt lat="52.187209976837039" lon="8.261889992281795">
        <ele>84</ele>
        <time>2026-04-15T23:06:42Z</time>
      </trkpt>
      <trkpt lat="52.187750022858381" lon="8.262149998918176">
        <ele>86</ele>
        <time>2026-04-15T23:06:57Z</time>
      </trkpt>
      <trkpt lat="52.18832996673882" lon="8.262410005554557">
        <ele>88</ele>
        <time>2026-04-15T23:07:13Z</time>
      </trkpt>
      <trkpt lat="52.188589973375201" lon="8.262500027194619">
        <ele>88</ele>
        <time>2026-04-15T23:07:21Z</time>
      </trkpt>
      <trkpt lat="52.188909994438291" lon="8.262600023299456">
        <ele>88</ele>
        <time>2026-04-15T23:07:29Z</time>
      </trkpt>
      <trkpt lat="52.190370038151741" lon="8.26306002214551">
        <ele>89</ele>
        <time>2026-04-15T23:08:09Z</time>
      </trkpt>
      <trkpt lat="52.190559972077608" lon="8.263120036572218">
        <ele>90</ele>
        <time>2026-04-15T23:08:14Z</time>
      </trkpt>
      <trkpt lat="52.191040003672242" lon="8.263269988819957">
        <ele>90</ele>
        <time>2026-04-15T23:08:27Z</time>
      </trkpt>
      <trkpt lat="52.191650038585067" lon="8.263439973816276">
        <ele>89</ele>
        <time>2026-04-15T23:08:44Z</time>
      </trkpt>
      <trkpt lat="52.192010041326284" lon="8.263499988242984">
        <ele>89</ele>
        <time>2026-04-15T23:08:53Z</time>
      </trkpt>
      <trkpt lat="52.192550003528595" lon="8.263529995456338">
        <ele>85</ele>
        <time>2026-04-15T23:09:08Z</time>
      </trkpt>
      <trkpt lat="52.193769989535213" lon="8.263669973239303">
        <ele>82</ele>
        <time>2026-04-15T23:09:41Z</time>
      </trkpt>
      <trkpt lat="52.193990014493465" lon="8.263729987666011">
        <ele>82</ele>
        <time>2026-04-15T23:09:47Z</time>
      </trkpt>
      <trkpt lat="52.194339958950877" lon="8.264099964872003">
        <ele>82</ele>
        <time>2026-04-15T23:09:58Z</time>
      </trkpt>
      <trkpt lat="52.194510027766228" lon="8.264300040900707">
        <ele>82</ele>
        <time>2026-04-15T23:10:03Z</time>
      </trkpt>
      <trkpt lat="52.194659980013967" lon="8.264440018683672">
        <ele>80</ele>
        <time>2026-04-15T23:10:08Z</time>
      </trkpt>
      <trkpt lat="52.194900037720799" lon="8.264440018683672">
        <ele>80</ele>
        <time>2026-04-15T23:10:15Z</time>
      </trkpt>
      <trkpt lat="52.195089971646667" lon="8.26445996761322">
        <ele>80</ele>
        <time>2026-04-15T23:10:20Z</time>
      </trkpt>
      <trkpt lat="52.195909973233938" lon="8.26432996429503">
        <ele>79</ele>
        <time>2026-04-15T23:10:42Z</time>
      </trkpt>
      <trkpt lat="52.195950038731098" lon="8.26394003815949">
        <ele>79</ele>
        <time>2026-04-15T23:10:48Z</time>
      </trkpt>
      <trkpt lat="52.196020027622581" lon="8.263539969921112">
        <ele>79</ele>
        <time>2026-04-15T23:10:55Z</time>
      </trkpt>
      <trkpt lat="52.196099990978837" lon="8.263130011036992">
        <ele>81</ele>
        <time>2026-04-15T23:11:02Z</time>
      </trkpt>
      <trkpt lat="52.196229994297028" lon="8.262640004977584">
        <ele>81</ele>
        <time>2026-04-15T23:11:11Z</time>
      </trkpt>
      <trkpt lat="52.196399979293346" lon="8.262110017240048">
        <ele>81</ele>
        <time>2026-04-15T23:11:21Z</time>
      </trkpt>
      <trkpt lat="52.196589997038245" lon="8.261620011180639">
        <ele>84</ele>
        <time>2026-04-15T23:11:30Z</time>
      </trkpt>
      <trkpt lat="52.196899959817529" lon="8.261060016229749">
        <ele>84</ele>
        <time>2026-04-15T23:11:42Z</time>
      </trkpt>
      <trkpt lat="52.197089977562428" lon="8.260760027915239">
        <ele>84</ele>
        <time>2026-04-15T23:11:50Z</time>
      </trkpt>
      <trkpt lat="52.197440005838871" lon="8.260200032964349">
        <ele>87</ele>
        <time>2026-04-15T23:12:03Z</time>
      </trkpt>
      <trkpt lat="52.19760999083519" lon="8.259889986366034">
        <ele>87</ele>
        <time>2026-04-15T23:12:09Z</time>
      </trkpt>
      <trkpt lat="52.197800008580089" lon="8.259490001946688">
        <ele>87</ele>
        <time>2026-04-15T23:12:18Z</time>
      </trkpt>
      <trkpt lat="52.197920037433505" lon="8.259160006418824">
        <ele>83</ele>
        <time>2026-04-15T23:12:24Z</time>
      </trkpt>
      <trkpt lat="52.198030008003116" lon="8.258849959820509">
        <ele>83</ele>
        <time>2026-04-15T23:12:30Z</time>
      </trkpt>
      <trkpt lat="52.198109971359372" lon="8.258539997041225">
        <ele>83</ele>
        <time>2026-04-15T23:12:35Z</time>
      </trkpt>
      <trkpt lat="52.198179960250854" lon="8.258240008726716">
        <ele>83</ele>
        <time>2026-04-15T23:12:41Z</time>
      </trkpt>
      <trkpt lat="52.198280040174723" lon="8.257640032097697">
        <ele>83</ele>
        <time>2026-04-15T23:12:51Z</time>
      </trkpt>
      <trkpt lat="52.198339970782399" lon="8.25696000829339">
        <ele>81</ele>
        <time>2026-04-15T23:13:02Z</time>
      </trkpt>
      <trkpt lat="52.198350029066205" lon="8.256620038300753">
        <ele>81</ele>
        <time>2026-04-15T23:13:08Z</time>
      </trkpt>
      <trkpt lat="52.198339970782399" lon="8.256149981170893">
        <ele>81</ele>
        <time>2026-04-15T23:13:15Z</time>
      </trkpt>
      <trkpt lat="52.198290014639497" lon="8.255640026181936">
        <ele>80</ele>
        <time>2026-04-15T23:13:24Z</time>
      </trkpt>
      <trkpt lat="52.198220025748014" lon="8.255199976265431">
        <ele>80</ele>
        <time>2026-04-15T23:13:31Z</time>
      </trkpt>
      <trkpt lat="52.198350029066205" lon="8.254890013486147">
        <ele>80</ele>
        <time>2026-04-15T23:13:40Z</time>
      </trkpt>
      <trkpt lat="52.19851003959775" lon="8.254539985209703">
        <ele>80</ele>
        <time>2026-04-15T23:13:47Z</time>
      </trkpt>
      <trkpt lat="52.19859997741878" lon="8.254270004108548">
        <ele>80</ele>
        <time>2026-04-15T23:13:52Z</time>
      </trkpt>
      <trkpt lat="52.198759987950325" lon="8.253810005262494">
        <ele>80</ele>
        <time>2026-04-15T23:14:01Z</time>
      </trkpt>
      <trkpt lat="52.198959980159998" lon="8.253229977563024">
        <ele>80</ele>
        <time>2026-04-15T23:14:12Z</time>
      </trkpt>
      <trkpt lat="52.199059976264834" lon="8.252680040895939">
        <ele>79</ele>
        <time>2026-04-15T23:14:21Z</time>
      </trkpt>
      <trkpt lat="52.19902996905148" lon="8.250179970636964">
        <ele>79</ele>
        <time>2026-04-15T23:15:02Z</time>
      </trkpt>
      <trkpt lat="52.199129965156317" lon="8.249939996749163">
        <ele>79</ele>
        <time>2026-04-15T23:15:07Z</time>
      </trkpt>
      <trkpt lat="52.200309969484806" lon="8.249510005116463">
        <ele>83</ele>
        <time>2026-04-15T23:15:39Z</time>
      </trkpt>
      <trkpt lat="52.20068003050983" lon="8.249380001798272">
        <ele>86</ele>
        <time>2026-04-15T23:15:49Z</time>
      </trkpt>
      <trkpt lat="52.20164998434484" lon="8.249040031805635">
        <ele>88</ele>
        <time>2026-04-15T23:16:16Z</time>
      </trkpt>
      <trkpt lat="52.201949972659349" lon="8.247779980301857">
        <ele>91</ele>
        <time>2026-04-15T23:16:39Z</time>
      </trkpt>
      <trkpt lat="52.202030019834638" lon="8.24714002199471">
        <ele>91</ele>
        <time>2026-04-15T23:16:50Z</time>
      </trkpt>
      <trkpt lat="52.202049968764186" lon="8.246759986504912">
        <ele>91</ele>
        <time>2026-04-15T23:16:56Z</time>
      </trkpt>
      <trkpt lat="52.202039994299412" lon="8.244559988379479">
        <ele>87</ele>
        <time>2026-04-15T23:17:32Z</time>
      </trkpt>
      <trkpt lat="52.202390022575855" lon="8.244510032236576">
        <ele>87</ele>
        <time>2026-04-15T23:17:43Z</time>
      </trkpt>
      <trkpt lat="52.202690010890365" lon="8.244559988379479">
        <ele>87</ele>
        <time>2026-04-15T23:17:51Z</time>
      </trkpt>
      <trkpt lat="52.203020006418228" lon="8.244580021128058">
        <ele>86</ele>
        <time>2026-04-15T23:18:00Z</time>
      </trkpt>
      <trkpt lat="52.203329969197512" lon="8.244559988379479">
        <ele>86</ele>
        <time>2026-04-15T23:18:08Z</time>
      </trkpt>
      <trkpt lat="52.203689971938729" lon="8.244510032236576">
        <ele>86</ele>
        <time>2026-04-15T23:18:18Z</time>
      </trkpt>
      <trkpt lat="52.204000018537045" lon="8.244439959526062">
        <ele>87</ele>
        <time>2026-04-15T23:18:26Z</time>
      </trkpt>
      <trkpt lat="52.204349962994456" lon="8.244350021705031">
        <ele>87</ele>
        <time>2026-04-15T23:18:35Z</time>
      </trkpt>
      <trkpt lat="52.205210030078888" lon="8.244109963998199">
        <ele>88</ele>
        <time>2026-04-15T23:18:59Z</time>
      </trkpt>
      <trkpt lat="52.206379976123571" lon="8.243809975683689">
        <ele>88</ele>
        <time>2026-04-15T23:19:30Z</time>
      </trkpt>
      <trkpt lat="52.20689001493156" lon="8.243419965729117">
        <ele>88</ele>
        <time>2026-04-15T23:19:46Z</time>
      </trkpt>
      <trkpt lat="52.208189964294434" lon="8.242589989677072">
        <ele>83</ele>
        <time>2026-04-15T23:20:23Z</time>
      </trkpt>
      <trkpt lat="52.208569999784231" lon="8.242340041324496">
        <ele>83</ele>
        <time>2026-04-15T23:20:34Z</time>
      </trkpt>
      <trkpt lat="52.208830006420612" lon="8.242180030792952">
        <ele>83</ele>
        <time>2026-04-15T23:20:42Z</time>
      </trkpt>
      <trkpt lat="52.209029998630285" lon="8.242290001362562">
        <ele>83</ele>
        <time>2026-04-15T23:20:48Z</time>
      </trkpt>
      <trkpt lat="52.209129994735122" lon="8.24280004017055">
        <ele>83</ele>
        <time>2026-04-15T23:20:57Z</time>
      </trkpt>
      <trkpt lat="52.209199983626604" lon="8.243200024589896">
        <ele>83</ele>
        <time>2026-04-15T23:21:03Z</time>
      </trkpt>
      <trkpt lat="52.209310038015246" lon="8.243760019540787">
        <ele>82</ele>
        <time>2026-04-15T23:21:13Z</time>
      </trkpt>
      <trkpt lat="52.209489997476339" lon="8.244620002806187">
        <ele>82</ele>
        <time>2026-04-15T23:21:28Z</time>
      </trkpt>
      <trkpt lat="52.20959996804595" lon="8.245159965008497">
        <ele>82</ele>
        <time>2026-04-15T23:21:37Z</time>
      </trkpt>
      <trkpt lat="52.209659982472658" lon="8.245470011606813">
        <ele>85</ele>
        <time>2026-04-15T23:21:42Z</time>
      </trkpt>
      <trkpt lat="52.211369974538684" lon="8.24527001939714">
        <ele>89</ele>
        <time>2026-04-15T23:22:28Z</time>
      </trkpt>
      <trkpt lat="52.212540004402399" lon="8.245419971644878">
        <ele>87</ele>
        <time>2026-04-15T23:22:59Z</time>
      </trkpt>
      <trkpt lat="52.214839998632669" lon="8.245709985494614">
        <ele>101</ele>
        <time>2026-04-15T23:24:01Z</time>
      </trkpt>
      <trkpt lat="52.21497000195086" lon="8.245289968326688">
        <ele>101</ele>
        <time>2026-04-15T23:24:09Z</time>
      </trkpt>
      <trkpt lat="52.215230008587241" lon="8.244680017232895">
        <ele>101</ele>
        <time>2026-04-15T23:24:21Z</time>
      </trkpt>
      <trkpt lat="52.21539999358356" lon="8.244429985061288">
        <ele>102</ele>
        <time>2026-04-15T23:24:27Z</time>
      </trkpt>
      <trkpt lat="52.215580036863685" lon="8.244209960103035">
        <ele>102</ele>
        <time>2026-04-15T23:24:33Z</time>
      </trkpt>
      <trkpt lat="52.215810036286712" lon="8.243990018963814">
        <ele>102</ele>
        <time>2026-04-15T23:24:40Z</time>
      </trkpt>
      <trkpt lat="52.216020002961159" lon="8.243850041180849">
        <ele>102</ele>
        <time>2026-04-15T23:24:46Z</time>
      </trkpt>
      <trkpt lat="52.216459969058633" lon="8.243700005114079">
        <ele>98</ele>
        <time>2026-04-15T23:24:58Z</time>
      </trkpt>
      <trkpt lat="52.217030022293329" lon="8.243649965152144">
        <ele>98</ele>
        <time>2026-04-15T23:25:14Z</time>
      </trkpt>
      <trkpt lat="52.217750027775764" lon="8.243609983474016">
        <ele>92</ele>
        <time>2026-04-15T23:25:33Z</time>
      </trkpt>
      <trkpt lat="52.217959994450212" lon="8.243549969047308">
        <ele>92</ele>
        <time>2026-04-15T23:25:38Z</time>
      </trkpt>
      <trkpt lat="52.218180019408464" lon="8.243419965729117">
        <ele>92</ele>
        <time>2026-04-15T23:25:45Z</time>
      </trkpt>
      <trkpt lat="52.219319958239794" lon="8.242429979145527">
        <ele>93</ele>
        <time>2026-04-15T23:26:19Z</time>
      </trkpt>
      <trkpt lat="52.21943998709321" lon="8.242099983617663">
        <ele>93</ele>
        <time>2026-04-15T23:26:26Z</time>
      </trkpt>
      <trkpt lat="52.219669986516237" lon="8.242099983617663">
        <ele>93</ele>
        <time>2026-04-15T23:26:32Z</time>
      </trkpt>
      <trkpt lat="52.221639985218644" lon="8.240380017086864">
        <ele>87</ele>
        <time>2026-04-15T23:27:32Z</time>
      </trkpt>
      <trkpt lat="52.222159998491406" lon="8.239820022135973">
        <ele>86</ele>
        <time>2026-04-15T23:27:48Z</time>
      </trkpt>
      <trkpt lat="52.222399972379208" lon="8.239569989964366">
        <ele>86</ele>
        <time>2026-04-15T23:27:56Z</time>
      </trkpt>
      <trkpt lat="52.222599964588881" lon="8.239400004968047">
        <ele>86</ele>
        <time>2026-04-15T23:28:02Z</time>
      </trkpt>
      <trkpt lat="52.222849996760488" lon="8.239270001649857">
        <ele>87</ele>
        <time>2026-04-15T23:28:09Z</time>
      </trkpt>
      <trkpt lat="52.223179992288351" lon="8.239179980009794">
        <ele>87</ele>
        <time>2026-04-15T23:28:18Z</time>
      </trkpt>
      <trkpt lat="52.223590034991503" lon="8.239130023866892">
        <ele>87</ele>
        <time>2026-04-15T23:28:29Z</time>
      </trkpt>
      <trkpt lat="52.224499974399805" lon="8.23914997279644">
        <ele>87</ele>
        <time>2026-04-15T23:28:53Z</time>
      </trkpt>
      <trkpt lat="52.22481002099812" lon="8.23917000554502">
        <ele>87</ele>
        <time>2026-04-15T23:29:01Z</time>
      </trkpt>
      <trkpt lat="52.225029962137341" lon="8.239209987223148">
        <ele>86</ele>
        <time>2026-04-15T23:29:07Z</time>
      </trkpt>
      <trkpt lat="52.225300027057528" lon="8.239270001649857">
        <ele>86</ele>
        <time>2026-04-15T23:29:15Z</time>
      </trkpt>
      <trkpt lat="52.225809982046485" lon="8.23946999385953">
        <ele>86</ele>
        <time>2026-04-15T23:29:29Z</time>
      </trkpt>
      <trkpt lat="52.226309962570667" lon="8.239509975537658">
        <ele>87</ele>
        <time>2026-04-15T23:29:42Z</time>
      </trkpt>
      <trkpt lat="52.2265500202775" lon="8.239650037139654">
        <ele>87</ele>
        <time>2026-04-15T23:29:49Z</time>
      </trkpt>
      <trkpt lat="52.227489966899157" lon="8.240570034831762">
        <ele>86</ele>
        <time>2026-04-15T23:30:18Z</time>
      </trkpt>
      <trkpt lat="52.227640002965927" lon="8.240749994292855">
        <ele>86</ele>
        <time>2026-04-15T23:30:23Z</time>
      </trkpt>
      <trkpt lat="52.227849969640374" lon="8.240919979289174">
        <ele>86</ele>
        <time>2026-04-15T23:30:29Z</time>
      </trkpt>
      <trkpt lat="52.228569975122809" lon="8.240830041468144">
        <ele>86</ele>
        <time>2026-04-15T23:30:49Z</time>
      </trkpt>
      <trkpt lat="52.228780025616288" lon="8.240859964862466">
        <ele>86</ele>
        <time>2026-04-15T23:30:55Z</time>
      </trkpt>
      <trkpt lat="52.229089988395572" lon="8.240900030359626">
        <ele>84</ele>
        <time>2026-04-15T23:31:03Z</time>
      </trkpt>
      <trkpt lat="52.229270031675696" lon="8.240800034254789">
        <ele>84</ele>
        <time>2026-04-15T23:31:08Z</time>
      </trkpt>
      <trkpt lat="52.229570019990206" lon="8.240619990974665">
        <ele>84</ele>
        <time>2026-04-15T23:31:17Z</time>
      </trkpt>
      <trkpt lat="52.229960029944777" lon="8.24045998044312">
        <ele>80</ele>
        <time>2026-04-15T23:31:27Z</time>
      </trkpt>
      <trkpt lat="52.23046001046896" lon="8.240310028195381">
        <ele>80</ele>
        <time>2026-04-15T23:31:41Z</time>
      </trkpt>
      <trkpt lat="52.230639969930053" lon="8.240159992128611">
        <ele>80</ele>
        <time>2026-04-15T23:31:46Z</time>
      </trkpt>
      <trkpt lat="52.230939958244562" lon="8.239760007709265">
        <ele>82</ele>
        <time>2026-04-15T23:31:57Z</time>
      </trkpt>
      <trkpt lat="52.231310019269586" lon="8.239139998331666">
        <ele>82</ele>
        <time>2026-04-15T23:32:11Z</time>
      </trkpt>
      <trkpt lat="52.232000017538667" lon="8.237769976258278">
        <ele>82</ele>
        <time>2026-04-15T23:32:40Z</time>
      </trkpt>
      <trkpt lat="52.232090039178729" lon="8.237390024587512">
        <ele>82</ele>
        <time>2026-04-15T23:32:46Z</time>
      </trkpt>
      <trkpt lat="52.232160028070211" lon="8.237049970775843">
        <ele>82</ele>
        <time>2026-04-15T23:32:52Z</time>
      </trkpt>
      <trkpt lat="52.23230998031795" lon="8.236189987510443">
        <ele>82</ele>
        <time>2026-04-15T23:33:07Z</time>
      </trkpt>
      <trkpt lat="52.23233001306653" lon="8.235360011458397">
        <ele>81</ele>
        <time>2026-04-15T23:33:21Z</time>
      </trkpt>
      <trkpt lat="52.233010036870837" lon="8.227789979428053">
        <ele>81</ele>
        <time>2026-04-15T23:35:26Z</time>
      </trkpt>
      <trkpt lat="52.233180021867156" lon="8.225949984043837">
        <ele>83</ele>
        <time>2026-04-15T23:35:56Z</time>
      </trkpt>
      <trkpt lat="52.233229978010058" lon="8.225429970771074">
        <ele>83</ele>
        <time>2026-04-15T23:36:05Z</time>
      </trkpt>
      <trkpt lat="52.233359981328249" lon="8.22397998534143">
        <ele>82</ele>
        <time>2026-04-15T23:36:29Z</time>
      </trkpt>
      <trkpt lat="52.233459977433085" lon="8.222810039296746">
        <ele>83</ele>
        <time>2026-04-15T23:36:48Z</time>
      </trkpt>
      <trkpt lat="52.233629962429404" lon="8.220710037276149">
        <ele>83</ele>
        <time>2026-04-15T23:37:23Z</time>
      </trkpt>
      <trkpt lat="52.233719984069467" lon="8.21993999183178">
        <ele>83</ele>
        <time>2026-04-15T23:37:36Z</time>
      </trkpt>
      <trkpt lat="52.233570031821728" lon="8.218150036409497">
        <ele>84</ele>
        <time>2026-04-15T23:38:05Z</time>
      </trkpt>
      <trkpt lat="52.233380014076829" lon="8.216250026598573">
        <ele>84</ele>
        <time>2026-04-15T23:38:37Z</time>
      </trkpt>
      <trkpt lat="52.233269959688187" lon="8.215100029483438">
        <ele>84</ele>
        <time>2026-04-15T23:38:56Z</time>
      </trkpt>
      <trkpt lat="52.233120007440448" lon="8.213520040735602">
        <ele>86</ele>
        <time>2026-04-15T23:39:22Z</time>
      </trkpt>
      <trkpt lat="52.233020011335611" lon="8.213089965283871">
        <ele>88</ele>
        <time>2026-04-15T23:39:30Z</time>
      </trkpt>
      <trkpt lat="52.232420034706593" lon="8.211839972063899">
        <ele>86</ele>
        <time>2026-04-15T23:39:56Z</time>
      </trkpt>
      <trkpt lat="52.232279973104596" lon="8.211630005389452">
        <ele>86</ele>
        <time>2026-04-15T23:40:01Z</time>
      </trkpt>
      <trkpt lat="52.232060031965375" lon="8.211349966004491">
        <ele>86</ele>
        <time>2026-04-15T23:40:08Z</time>
      </trkpt>
      <trkpt lat="52.231740010902286" lon="8.210940007120371">
        <ele>86</ele>
        <time>2026-04-15T23:40:19Z</time>
      </trkpt>
      <trkpt lat="52.231280012056231" lon="8.210470033809543">
        <ele>84</ele>
        <time>2026-04-15T23:40:34Z</time>
      </trkpt>
      <trkpt lat="52.231129975989461" lon="8.210140038281679">
        <ele>84</ele>
        <time>2026-04-15T23:40:40Z</time>
      </trkpt>
      <trkpt lat="52.231099968776107" lon="8.209720021113753">
        <ele>84</ele>
        <time>2026-04-15T23:40:47Z</time>
      </trkpt>
      <trkpt lat="52.231240030378103" lon="8.209539977833629">
        <ele>83</ele>
        <time>2026-04-15T23:40:54Z</time>
      </trkpt>
      <trkpt lat="52.231979984790087" lon="8.209720021113753">
        <ele>83</ele>
        <time>2026-04-15T23:41:14Z</time>
      </trkpt>
      <trkpt lat="52.232430009171367" lon="8.209869973361492">
        <ele>85</ele>
        <time>2026-04-15T23:41:27Z</time>
      </trkpt>
      <trkpt lat="52.23278003744781" lon="8.210089998319745">
        <ele>85</ele>
        <time>2026-04-15T23:41:37Z</time>
      </trkpt>
      <trkpt lat="52.233120007440448" lon="8.210240034386516">
        <ele>85</ele>
        <time>2026-04-15T23:41:46Z</time>
      </trkpt>
      <trkpt lat="52.233470035716891" lon="8.210120005533099">
        <ele>84</ele>
        <time>2026-04-15T23:41:56Z</time>
      </trkpt>
      <trkpt lat="52.233670027926564" lon="8.210029983893037">
        <ele>84</ele>
        <time>2026-04-15T23:42:01Z</time>
      </trkpt>
      <trkpt lat="52.233849987387657" lon="8.20995002053678">
        <ele>84</ele>
        <time>2026-04-15T23:42:06Z</time>
      </trkpt>
      <trkpt lat="52.234760010614991" lon="8.20947996340692">
        <ele>88</ele>
        <time>2026-04-15T23:42:32Z</time>
      </trkpt>
      <trkpt lat="52.236100025475025" lon="8.208789965137839">
        <ele>83</ele>
        <time>2026-04-15T23:43:09Z</time>
      </trkpt>
      <trkpt lat="52.235550004988909" lon="8.205429995432496">
        <ele>84</ele>
        <time>2026-04-15T23:44:06Z</time>
      </trkpt>
      <trkpt lat="52.235499965026975" lon="8.20412996225059">
        <ele>78</ele>
        <time>2026-04-15T23:44:28Z</time>
      </trkpt>
      <trkpt lat="52.235389994457364" lon="8.201589994132519">
        <ele>77</ele>
        <time>2026-04-15T23:45:09Z</time>
      </trkpt>
      <trkpt lat="52.235369961708784" lon="8.201199984177947">
        <ele>77</ele>
        <time>2026-04-15T23:45:16Z</time>
      </trkpt>
      <trkpt lat="52.235519997775555" lon="8.201090013608336">
        <ele>77</ele>
        <time>2026-04-15T23:45:22Z</time>
      </trkpt>
      <trkpt lat="52.235740022733808" lon="8.201039973646402">
        <ele>77</ele>
        <time>2026-04-15T23:45:28Z</time>
      </trkpt>
      <trkpt lat="52.23594001494348" lon="8.200779967010021">
        <ele>77</ele>
        <time>2026-04-15T23:45:35Z</time>
      </trkpt>
      <trkpt lat="52.236070018261671" lon="8.20053999312222">
        <ele>77</ele>
        <time>2026-04-15T23:45:40Z</time>
      </trkpt>
      <trkpt lat="52.23626003600657" lon="8.200349975377321">
        <ele>77</ele>
        <time>2026-04-15T23:45:47Z</time>
      </trkpt>
      <trkpt lat="52.236769990995526" lon="8.200300019234419">
        <ele>77</ele>
        <time>2026-04-15T23:46:00Z</time>
      </trkpt>
      <trkpt lat="52.23639003932476" lon="8.199220011010766">
        <ele>78</ele>
        <time>2026-04-15T23:46:23Z</time>
      </trkpt>
      <trkpt lat="52.236189963296056" lon="8.19708002731204">
        <ele>79</ele>
        <time>2026-04-15T23:46:58Z</time>
      </trkpt>
      <trkpt lat="52.236049985513091" lon="8.195399958640337">
        <ele>82</ele>
        <time>2026-04-15T23:47:26Z</time>
      </trkpt>
      <trkpt lat="52.235889974981546" lon="8.193440018221736">
        <ele>82</ele>
        <time>2026-04-15T23:47:58Z</time>
      </trkpt>
      <trkpt lat="52.237599967047572" lon="8.192680031061173">
        <ele>82</ele>
        <time>2026-04-15T23:48:46Z</time>
      </trkpt>
      <trkpt lat="52.239950001239777" lon="8.191939992830157">
        <ele>91</ele>
        <time>2026-04-15T23:49:50Z</time>
      </trkpt>
      <trkpt lat="52.23987003788352" lon="8.191560041159391">
        <ele>91</ele>
        <time>2026-04-15T23:49:57Z</time>
      </trkpt>
      <trkpt lat="52.239450020715594" lon="8.189479988068342">
        <ele>94</ele>
        <time>2026-04-15T23:50:33Z</time>
      </trkpt>
      <trkpt lat="52.239359999075532" lon="8.188720000907779">
        <ele>93</ele>
        <time>2026-04-15T23:50:45Z</time>
      </trkpt>
      <trkpt lat="52.238670000806451" lon="8.18047002889216">
        <ele>84</ele>
        <time>2026-04-15T23:53:01Z</time>
      </trkpt>
      <trkpt lat="52.238570004701614" lon="8.179330006241798">
        <ele>83</ele>
        <time>2026-04-15T23:53:20Z</time>
      </trkpt>
      <trkpt lat="52.238470008596778" lon="8.178089987486601">
        <ele>83</ele>
        <time>2026-04-15T23:53:41Z</time>
      </trkpt>
      <trkpt lat="52.238360038027167" lon="8.176909983158112">
        <ele>83</ele>
        <time>2026-04-15T23:54:00Z</time>
      </trkpt>
      <trkpt lat="52.238340005278587" lon="8.176500024273992">
        <ele>84</ele>
        <time>2026-04-15T23:54:07Z</time>
      </trkpt>
      <trkpt lat="52.238309998065233" lon="8.176049999892712">
        <ele>84</ele>
        <time>2026-04-15T23:54:14Z</time>
      </trkpt>
      <trkpt lat="52.238259958103299" lon="8.175499979406595">
        <ele>84</ele>
        <time>2026-04-15T23:54:24Z</time>
      </trkpt>
      <trkpt lat="52.238189969211817" lon="8.174749966710806">
        <ele>82</ele>
        <time>2026-04-15T23:54:36Z</time>
      </trkpt>
      <trkpt lat="52.23813003860414" lon="8.174409996718168">
        <ele>82</ele>
        <time>2026-04-15T23:54:42Z</time>
      </trkpt>
      <trkpt lat="52.237949995324016" lon="8.17346996627748">
        <ele>82</ele>
        <time>2026-04-15T23:54:58Z</time>
      </trkpt>
      <trkpt lat="52.237889980897307" lon="8.173120021820068">
        <ele>81</ele>
        <time>2026-04-15T23:55:04Z</time>
      </trkpt>
      <trkpt lat="52.237819992005825" lon="8.172809975221753">
        <ele>81</ele>
        <time>2026-04-15T23:55:09Z</time>
      </trkpt>
      <trkpt lat="52.237710021436214" lon="8.172170016914606">
        <ele>81</ele>
        <time>2026-04-15T23:55:20Z</time>
      </trkpt>
      <trkpt lat="52.237689988687634" lon="8.171710018068552">
        <ele>81</ele>
        <time>2026-04-15T23:55:28Z</time>
      </trkpt>
      <trkpt lat="52.237770035862923" lon="8.170860009267926">
        <ele>81</ele>
        <time>2026-04-15T23:55:42Z</time>
      </trkpt>
      <trkpt lat="52.237859973683953" lon="8.170539988204837">
        <ele>81</ele>
        <time>2026-04-15T23:55:48Z</time>
      </trkpt>
      <trkpt lat="52.238249983638525" lon="8.169229980558157">
        <ele>79</ele>
        <time>2026-04-15T23:56:12Z</time>
      </trkpt>
      <trkpt lat="52.238460034132004" lon="8.168780039995909">
        <ele>79</ele>
        <time>2026-04-15T23:56:21Z</time>
      </trkpt>
      <trkpt lat="52.238809978589416" lon="8.168219961225987">
        <ele>77</ele>
        <time>2026-04-15T23:56:34Z</time>
      </trkpt>
      <trkpt lat="52.239169981330633" lon="8.167810002341867">
        <ele>77</ele>
        <time>2026-04-15T23:56:46Z</time>
      </trkpt>
      <trkpt lat="52.239350024610758" lon="8.167519988492131">
        <ele>77</ele>
        <time>2026-04-15T23:56:52Z</time>
      </trkpt>
      <trkpt lat="52.239520009607077" lon="8.167289989069104">
        <ele>77</ele>
        <time>2026-04-15T23:56:58Z</time>
      </trkpt>
      <trkpt lat="52.240049997344613" lon="8.166910037398338">
        <ele>77</ele>
        <time>2026-04-15T23:57:14Z</time>
      </trkpt>
      <trkpt lat="52.241009976714849" lon="8.166309976950288">
        <ele>75</ele>
        <time>2026-04-15T23:57:41Z</time>
      </trkpt>
      <trkpt lat="52.241209968924522" lon="8.166200006380677">
        <ele>75</ele>
        <time>2026-04-15T23:57:47Z</time>
      </trkpt>
      <trkpt lat="52.241230001673102" lon="8.164569977670908">
        <ele>75</ele>
        <time>2026-04-15T23:58:14Z</time>
      </trkpt>
      <trkpt lat="52.241239976137877" lon="8.163489969447255">
        <ele>72</ele>
        <time>2026-04-15T23:58:31Z</time>
      </trkpt>
      <trkpt lat="52.241269983351231" lon="8.163099959492683">
        <ele>72</ele>
        <time>2026-04-15T23:58:38Z</time>
      </trkpt>
      <trkpt lat="52.241399986669421" lon="8.162580030038953">
        <ele>72</ele>
        <time>2026-04-15T23:58:47Z</time>
      </trkpt>
      <trkpt lat="52.241580029949546" lon="8.161660032346845">
        <ele>72</ele>
        <time>2026-04-15T23:59:03Z</time>
      </trkpt>
      <trkpt lat="52.241710033267736" lon="8.161240015178919">
        <ele>72</ele>
        <time>2026-04-15T23:59:11Z</time>
      </trkpt>
      <trkpt lat="52.241820003837347" lon="8.160950001329184">
        <ele>76</ele>
        <time>2026-04-15T23:59:16Z</time>
      </trkpt>
      <trkpt lat="52.242189981043339" lon="8.159909974783659">
        <ele>76</ele>
        <time>2026-04-15T23:59:36Z</time>
      </trkpt>
      <trkpt lat="52.242379998788238" lon="8.15885997377336">
        <ele>80</ele>
        <time>2026-04-15T23:59:54Z</time>
      </trkpt>
      <trkpt lat="52.242660038173199" lon="8.156670033931732">
        <ele>79</ele>
        <time>2026-04-16T00:00:30Z</time>
      </trkpt>
      <trkpt lat="52.242800015956163" lon="8.155509978532791">
        <ele>77</ele>
        <time>2026-04-16T00:00:50Z</time>
      </trkpt>
      <trkpt lat="52.242890037596226" lon="8.154859961941838">
        <ele>77</ele>
        <time>2026-04-16T00:01:01Z</time>
      </trkpt>
      <trkpt lat="52.242939993739128" lon="8.154470035806298">
        <ele>78</ele>
        <time>2026-04-16T00:01:07Z</time>
      </trkpt>
      <trkpt lat="52.243000008165836" lon="8.15393996424973">
        <ele>78</ele>
        <time>2026-04-16T00:01:16Z</time>
      </trkpt>
      <trkpt lat="52.243020040914416" lon="8.153569987043738">
        <ele>78</ele>
        <time>2026-04-16T00:01:22Z</time>
      </trkpt>
      <trkpt lat="52.243190025910735" lon="8.153420034796">
        <ele>78</ele>
        <time>2026-04-16T00:01:28Z</time>
      </trkpt>
      <trkpt lat="52.243379959836602" lon="8.15340000204742">
        <ele>78</ele>
        <time>2026-04-16T00:01:34Z</time>
      </trkpt>
      <trkpt lat="52.243690006434917" lon="8.153349962085486">
        <ele>79</ele>
        <time>2026-04-16T00:01:42Z</time>
      </trkpt>
      <trkpt lat="52.244069958105683" lon="8.153219958767295">
        <ele>79</ele>
        <time>2026-04-16T00:01:52Z</time>
      </trkpt>
      <trkpt lat="52.244359971955419" lon="8.153209984302521">
        <ele>79</ele>
        <time>2026-04-16T00:02:00Z</time>
      </trkpt>
      <trkpt lat="52.244779989123344" lon="8.153230017051101">
        <ele>79</ele>
        <time>2026-04-16T00:02:11Z</time>
      </trkpt>
      <trkpt lat="52.245109984651208" lon="8.153170002624393">
        <ele>79</ele>
        <time>2026-04-16T00:02:20Z</time>
      </trkpt>
      <trkpt lat="52.245439980179071" lon="8.153090039268136">
        <ele>79</ele>
        <time>2026-04-16T00:02:29Z</time>
      </trkpt>
      <trkpt lat="52.245660005137324" lon="8.153060032054782">
        <ele>80</ele>
        <time>2026-04-16T00:02:35Z</time>
      </trkpt>
      <trkpt lat="52.246089996770024" lon="8.153070006519556">
        <ele>80</ele>
        <time>2026-04-16T00:02:46Z</time>
      </trkpt>
      <trkpt lat="52.246310021728277" lon="8.153000017628074">
        <ele>80</ele>
        <time>2026-04-16T00:02:52Z</time>
      </trkpt>
      <trkpt lat="52.246740013360977" lon="8.152849981561303">
        <ele>80</ele>
        <time>2026-04-16T00:03:04Z</time>
      </trkpt>
      <trkpt lat="52.247019968926907" lon="8.152710003778338">
        <ele>80</ele>
        <time>2026-04-16T00:03:12Z</time>
      </trkpt>
      <trkpt lat="52.247249968349934" lon="8.15251998603344">
        <ele>80</ele>
        <time>2026-04-16T00:03:19Z</time>
      </trkpt>
      <trkpt lat="52.247500000521541" lon="8.152180016040802">
        <ele>89</ele>
        <time>2026-04-16T00:03:28Z</time>
      </trkpt>
      <trkpt lat="52.249319963157177" lon="8.148289974778891">
        <ele>86</ele>
        <time>2026-04-16T00:04:48Z</time>
      </trkpt>
      <trkpt lat="52.251409990713" lon="8.143919985741377">
        <ele>73</ele>
        <time>2026-04-16T00:06:18Z</time>
      </trkpt>
      <trkpt lat="52.251679971814156" lon="8.143350016325712">
        <ele>73</ele>
        <time>2026-04-16T00:06:30Z</time>
      </trkpt>
      <trkpt lat="52.251830007880926" lon="8.143009962514043">
        <ele>73</ele>
        <time>2026-04-16T00:06:37Z</time>
      </trkpt>
      <trkpt lat="52.252009967342019" lon="8.142609978094697">
        <ele>73</ele>
        <time>2026-04-16T00:06:45Z</time>
      </trkpt>
      <trkpt lat="52.25218003615737" lon="8.142140004783869">
        <ele>73</ele>
        <time>2026-04-16T00:06:54Z</time>
      </trkpt>
      <trkpt lat="52.2522699739784" lon="8.141840016469359">
        <ele>73</ele>
        <time>2026-04-16T00:07:00Z</time>
      </trkpt>
      <trkpt lat="52.252390002831817" lon="8.141480013728142">
        <ele>73</ele>
        <time>2026-04-16T00:07:06Z</time>
      </trkpt>
      <trkpt lat="52.252439958974719" lon="8.141099978238344">
        <ele>73</ele>
        <time>2026-04-16T00:07:13Z</time>
      </trkpt>
      <trkpt lat="52.2526999656111" lon="8.141029989346862">
        <ele>76</ele>
        <time>2026-04-16T00:07:20Z</time>
      </trkpt>
      <trkpt lat="52.25347001105547" lon="8.140839971601963">
        <ele>82</ele>
        <time>2026-04-16T00:07:41Z</time>
      </trkpt>
      <trkpt lat="52.253670003265142" lon="8.140869978815317">
        <ele>82</ele>
        <time>2026-04-16T00:07:46Z</time>
      </trkpt>
      <trkpt lat="52.254069987684488" lon="8.140139998868108">
        <ele>82</ele>
        <time>2026-04-16T00:08:02Z</time>
      </trkpt>
      <trkpt lat="52.254290012642741" lon="8.139819977805018">
        <ele>78</ele>
        <time>2026-04-16T00:08:10Z</time>
      </trkpt>
      <trkpt lat="52.254580026492476" lon="8.13935000449419">
        <ele>78</ele>
        <time>2026-04-16T00:08:21Z</time>
      </trkpt>
      <trkpt lat="52.254940029233694" lon="8.138699987903237">
        <ele>78</ele>
        <time>2026-04-16T00:08:35Z</time>
      </trkpt>
      <trkpt lat="52.255219984799623" lon="8.137189988046885">
        <ele>77</ele>
        <time>2026-04-16T00:09:01Z</time>
      </trkpt>
      <trkpt lat="52.256260011345148" lon="8.130599968135357">
        <ele>76</ele>
        <time>2026-04-16T00:10:53Z</time>
      </trkpt>
      <trkpt lat="52.256509959697723" lon="8.129119975492358">
        <ele>74</ele>
        <time>2026-04-16T00:11:18Z</time>
      </trkpt>
      <trkpt lat="52.256969958543777" lon="8.126210030168295">
        <ele>74</ele>
        <time>2026-04-16T00:12:07Z</time>
      </trkpt>
      <trkpt lat="52.257010024040937" lon="8.125630002468824">
        <ele>74</ele>
        <time>2026-04-16T00:12:16Z</time>
      </trkpt>
      <trkpt lat="52.256999965757132" lon="8.124979985877872">
        <ele>72</ele>
        <time>2026-04-16T00:12:27Z</time>
      </trkpt>
      <trkpt lat="52.256959984079003" lon="8.123969966545701">
        <ele>72</ele>
        <time>2026-04-16T00:12:44Z</time>
      </trkpt>
      <trkpt lat="52.256869962438941" lon="8.122510006651282">
        <ele>72</ele>
        <time>2026-04-16T00:13:07Z</time>
      </trkpt>
      <trkpt lat="52.256829980760813" lon="8.122089989483357">
        <ele>72</ele>
        <time>2026-04-16T00:13:14Z</time>
      </trkpt>
      <trkpt lat="52.256799973547459" lon="8.121799975633621">
        <ele>72</ele>
        <time>2026-04-16T00:13:19Z</time>
      </trkpt>
      <trkpt lat="52.256769966334105" lon="8.121509961783886">
        <ele>72</ele>
        <time>2026-04-16T00:13:24Z</time>
      </trkpt>
      <trkpt lat="52.25678002461791" lon="8.121009981259704">
        <ele>72</ele>
        <time>2026-04-16T00:13:32Z</time>
      </trkpt>
      <trkpt lat="52.256969958543777" lon="8.120459960773587">
        <ele>72</ele>
        <time>2026-04-16T00:13:43Z</time>
      </trkpt>
      <trkpt lat="52.257129969075322" lon="8.120210012421012">
        <ele>72</ele>
        <time>2026-04-16T00:13:49Z</time>
      </trkpt>
      <trkpt lat="52.257430041208863" lon="8.119910024106503">
        <ele>73</ele>
        <time>2026-04-16T00:13:58Z</time>
      </trkpt>
      <trkpt lat="52.257570018991828" lon="8.119610035791993">
        <ele>73</ele>
        <time>2026-04-16T00:14:04Z</time>
      </trkpt>
      <trkpt lat="52.257570018991828" lon="8.119220025837421">
        <ele>73</ele>
        <time>2026-04-16T00:14:11Z</time>
      </trkpt>
      <trkpt lat="52.257459964603186" lon="8.118470013141632">
        <ele>71</ele>
        <time>2026-04-16T00:14:23Z</time>
      </trkpt>
      <trkpt lat="52.257449990138412" lon="8.118049995973706">
        <ele>71</ele>
        <time>2026-04-16T00:14:30Z</time>
      </trkpt>
      <trkpt lat="52.257549986243248" lon="8.117750007659197">
        <ele>71</ele>
        <time>2026-04-16T00:14:36Z</time>
      </trkpt>
      <trkpt lat="52.258130013942719" lon="8.116909973323345">
        <ele>71</ele>
        <time>2026-04-16T00:14:57Z</time>
      </trkpt>
      <trkpt lat="52.258260017260909" lon="8.116530021652579">
        <ele>71</ele>
        <time>2026-04-16T00:15:04Z</time>
      </trkpt>
      <trkpt lat="52.258269991725683" lon="8.115520002320409">
        <ele>70</ele>
        <time>2026-04-16T00:15:20Z</time>
      </trkpt>
      <trkpt lat="52.258279966190457" lon="8.115210039541125">
        <ele>70</ele>
        <time>2026-04-16T00:15:26Z</time>
      </trkpt>
      <trkpt lat="52.258379962295294" lon="8.113959962502122">
        <ele>68</ele>
        <time>2026-04-16T00:15:46Z</time>
      </trkpt>
      <trkpt lat="52.258439976722002" lon="8.112890012562275">
        <ele>69</ele>
        <time>2026-04-16T00:16:04Z</time>
      </trkpt>
      <trkpt lat="52.258430002257228" lon="8.112520035356283">
        <ele>69</ele>
        <time>2026-04-16T00:16:10Z</time>
      </trkpt>
      <trkpt lat="52.258439976722002" lon="8.112230021506548">
        <ele>69</ele>
        <time>2026-04-16T00:16:15Z</time>
      </trkpt>
      <trkpt lat="52.258379962295294" lon="8.111970014870167">
        <ele>69</ele>
        <time>2026-04-16T00:16:21Z</time>
      </trkpt>
      <trkpt lat="52.258239984512329" lon="8.11214997433126">
        <ele>69</ele>
        <time>2026-04-16T00:16:26Z</time>
      </trkpt>
      <trkpt lat="52.257990036159754" lon="8.112260028719902">
        <ele>74</ele>
        <time>2026-04-16T00:16:34Z</time>
      </trkpt>
      <trkpt lat="52.257749978452921" lon="8.112230021506548">
        <ele>74</ele>
        <time>2026-04-16T00:16:41Z</time>
      </trkpt>
      <trkpt lat="52.257549986243248" lon="8.112139999866486">
        <ele>74</ele>
        <time>2026-04-16T00:16:46Z</time>
      </trkpt>
      <trkpt lat="52.257370026782155" lon="8.112060036510229">
        <ele>75</ele>
        <time>2026-04-16T00:16:51Z</time>
      </trkpt>
      <trkpt lat="52.257129969075322" lon="8.111949982121587">
        <ele>75</ele>
        <time>2026-04-16T00:16:58Z</time>
      </trkpt>
      <trkpt lat="52.256889995187521" lon="8.111830037087202">
        <ele>75</ele>
        <time>2026-04-16T00:17:04Z</time>
      </trkpt>
      <trkpt lat="52.256450029090047" lon="8.111619986593723">
        <ele>75</ele>
        <time>2026-04-16T00:17:17Z</time>
      </trkpt>
      <trkpt lat="52.255870001390576" lon="8.111370038241148">
        <ele>73</ele>
        <time>2026-04-16T00:17:33Z</time>
      </trkpt>
      <trkpt lat="52.255609994754195" lon="8.111240034922957">
        <ele>73</ele>
        <time>2026-04-16T00:17:40Z</time>
      </trkpt>
      <trkpt lat="52.25534001365304" lon="8.111059991642833">
        <ele>73</ele>
        <time>2026-04-16T00:17:48Z</time>
      </trkpt>
      <trkpt lat="52.255070032551885" lon="8.110790010541678">
        <ele>73</ele>
        <time>2026-04-16T00:17:56Z</time>
      </trkpt>
      <trkpt lat="52.254729978740215" lon="8.110499996691942">
        <ele>73</ele>
        <time>2026-04-16T00:18:06Z</time>
      </trkpt>
      <trkpt lat="52.254529986530542" lon="8.110330011695623">
        <ele>73</ele>
        <time>2026-04-16T00:18:13Z</time>
      </trkpt>
      <trkpt lat="52.254329994320869" lon="8.110260022804141">
        <ele>75</ele>
        <time>2026-04-16T00:18:18Z</time>
      </trkpt>
      <trkpt lat="52.253849962726235" lon="8.110339986160398">
        <ele>75</ele>
        <time>2026-04-16T00:18:31Z</time>
      </trkpt>
      <trkpt lat="52.25357998162508" lon="8.110400000587106">
        <ele>75</ele>
        <time>2026-04-16T00:18:38Z</time>
      </trkpt>
      <trkpt lat="52.253230037167668" lon="8.110490022227168">
        <ele>76</ele>
        <time>2026-04-16T00:18:48Z</time>
      </trkpt>
      <trkpt lat="52.252710023894906" lon="8.110499996691942">
        <ele>76</ele>
        <time>2026-04-16T00:19:02Z</time>
      </trkpt>
      <trkpt lat="52.252529980614781" lon="8.110460015013814">
        <ele>76</ele>
        <time>2026-04-16T00:19:07Z</time>
      </trkpt>
      <trkpt lat="52.252369970083237" lon="8.110339986160398">
        <ele>77</ele>
        <time>2026-04-16T00:19:11Z</time>
      </trkpt>
      <trkpt lat="52.251820033416152" lon="8.109809998422861">
        <ele>77</ele>
        <time>2026-04-16T00:19:29Z</time>
      </trkpt>
      <trkpt lat="52.251230031251907" lon="8.109359974041581">
        <ele>80</ele>
        <time>2026-04-16T00:19:46Z</time>
      </trkpt>
      <trkpt lat="52.250619996339083" lon="8.108910033479333">
        <ele>80</ele>
        <time>2026-04-16T00:20:04Z</time>
      </trkpt>
      <trkpt lat="52.250410029664636" lon="8.108729990199208">
        <ele>87</ele>
        <time>2026-04-16T00:20:10Z</time>
      </trkpt>
      <trkpt lat="52.24999001249671" lon="8.108350038528442">
        <ele>87</ele>
        <time>2026-04-16T00:20:23Z</time>
      </trkpt>
      <trkpt lat="52.249779962003231" lon="8.10810998082161">
        <ele>87</ele>
        <time>2026-04-16T00:20:30Z</time>
      </trkpt>
      <trkpt lat="52.24953998811543" lon="8.107800018042326">
        <ele>88</ele>
        <time>2026-04-16T00:20:38Z</time>
      </trkpt>
      <trkpt lat="52.249060040339828" lon="8.107150001451373">
        <ele>88</ele>
        <time>2026-04-16T00:20:55Z</time>
      </trkpt>
      <trkpt lat="52.247969973832369" lon="8.104959977790713">
        <ele>89</ele>
        <time>2026-04-16T00:21:41Z</time>
      </trkpt>
      <trkpt lat="52.247920017689466" lon="8.104669963940978">
        <ele>89</ele>
        <time>2026-04-16T00:21:47Z</time>
      </trkpt>
      <trkpt lat="52.248039962723851" lon="8.103879969567061">
        <ele>89</ele>
        <time>2026-04-16T00:22:01Z</time>
      </trkpt>
      <trkpt lat="52.248189998790622" lon="8.102780012413859">
        <ele>87</ele>
        <time>2026-04-16T00:22:19Z</time>
      </trkpt>
      <trkpt lat="52.248289994895458" lon="8.102020025253296">
        <ele>85</ele>
        <time>2026-04-16T00:22:32Z</time>
      </trkpt>
      <trkpt lat="52.248450005427003" lon="8.100759973749518">
        <ele>85</ele>
        <time>2026-04-16T00:22:53Z</time>
      </trkpt>
      <trkpt lat="52.248489987105131" lon="8.100459985435009">
        <ele>85</ele>
        <time>2026-04-16T00:22:58Z</time>
      </trkpt>
      <trkpt lat="52.248689979314804" lon="8.098949985578656">
        <ele>85</ele>
        <time>2026-04-16T00:23:23Z</time>
      </trkpt>
    </trkseg>
  </trk>

</gpx>